<?xml version="1.0" encoding="UTF-8" standalone="no" ?>
<gpx xmlns="http://www.topografix.com/GPX/1/1" xmlns:xsi="http://www.w3.org/2001/XMLSchema-instance" xsi:schemaLocation="http://www.topografix.com/GPX/1/1 http://www.topografix.com/GPX/1/1/gpx.xsd" version="1.1" creator="VisuGPX - https://www.visugpx.com">
  <metadata>
    <name>rando pédestre floirac2</name>
    <desc><![CDATA[rando pedestre]]></desc>
  </metadata>
  <trk>
    <name><![CDATA[Tracé 12 janv. 2016 1:35:07 PM]]></name>
    <trkseg>
      <trkpt lat="44.8409" lon="-0.52278">
        <ele>3</ele>
        <time>2016-01-12T12:35:07Z</time>
      </trkpt>
      <trkpt lat="44.84083" lon="-0.52271">
        <ele>4</ele>
        <time>2016-01-12T12:35:41Z</time>
      </trkpt>
      <trkpt lat="44.8409" lon="-0.52264">
        <ele>5</ele>
        <time>2016-01-12T12:35:53Z</time>
      </trkpt>
      <trkpt lat="44.84097" lon="-0.52261">
        <ele>6</ele>
        <time>2016-01-12T12:36:00Z</time>
      </trkpt>
      <trkpt lat="44.84105" lon="-0.52258">
        <ele>7</ele>
        <time>2016-01-12T12:36:07Z</time>
      </trkpt>
      <trkpt lat="44.84112" lon="-0.52251">
        <ele>8</ele>
        <time>2016-01-12T12:36:14Z</time>
      </trkpt>
      <trkpt lat="44.84119" lon="-0.52246">
        <ele>8</ele>
        <time>2016-01-12T12:36:22Z</time>
      </trkpt>
      <trkpt lat="44.84128" lon="-0.52246">
        <ele>9</ele>
        <time>2016-01-12T12:36:32Z</time>
      </trkpt>
      <trkpt lat="44.84135" lon="-0.52246">
        <ele>9</ele>
        <time>2016-01-12T12:36:36Z</time>
      </trkpt>
      <trkpt lat="44.84143" lon="-0.5225">
        <ele>10</ele>
        <time>2016-01-12T12:36:43Z</time>
      </trkpt>
      <trkpt lat="44.84152" lon="-0.52251">
        <ele>10</ele>
        <time>2016-01-12T12:36:51Z</time>
      </trkpt>
      <trkpt lat="44.84155" lon="-0.52263">
        <ele>11</ele>
        <time>2016-01-12T12:37:04Z</time>
      </trkpt>
      <trkpt lat="44.84156" lon="-0.52275">
        <ele>11</ele>
        <time>2016-01-12T12:37:11Z</time>
      </trkpt>
      <trkpt lat="44.84157" lon="-0.52286">
        <ele>11</ele>
        <time>2016-01-12T12:37:16Z</time>
      </trkpt>
      <trkpt lat="44.84155" lon="-0.52297">
        <ele>12</ele>
        <time>2016-01-12T12:37:24Z</time>
      </trkpt>
      <trkpt lat="44.84156" lon="-0.52309">
        <ele>12</ele>
        <time>2016-01-12T12:37:37Z</time>
      </trkpt>
      <trkpt lat="44.84155" lon="-0.52322">
        <ele>12</ele>
        <time>2016-01-12T12:37:45Z</time>
      </trkpt>
      <trkpt lat="44.84157" lon="-0.52333">
        <ele>12</ele>
        <time>2016-01-12T12:37:51Z</time>
      </trkpt>
      <trkpt lat="44.8416" lon="-0.52344">
        <ele>12</ele>
        <time>2016-01-12T12:37:58Z</time>
      </trkpt>
      <trkpt lat="44.84163" lon="-0.52355">
        <ele>11</ele>
        <time>2016-01-12T12:38:05Z</time>
      </trkpt>
      <trkpt lat="44.84166" lon="-0.52365">
        <ele>11</ele>
        <time>2016-01-12T12:38:12Z</time>
      </trkpt>
      <trkpt lat="44.8417" lon="-0.52376">
        <ele>10</ele>
        <time>2016-01-12T12:38:18Z</time>
      </trkpt>
      <trkpt lat="44.84173" lon="-0.52387">
        <ele>10</ele>
        <time>2016-01-12T12:38:24Z</time>
      </trkpt>
      <trkpt lat="44.84177" lon="-0.52398">
        <ele>9</ele>
        <time>2016-01-12T12:38:32Z</time>
      </trkpt>
      <trkpt lat="44.84182" lon="-0.52409">
        <ele>9</ele>
        <time>2016-01-12T12:38:43Z</time>
      </trkpt>
      <trkpt lat="44.84188" lon="-0.52417">
        <ele>8</ele>
        <time>2016-01-12T12:38:52Z</time>
      </trkpt>
      <trkpt lat="44.84194" lon="-0.52426">
        <ele>7</ele>
        <time>2016-01-12T12:39:00Z</time>
      </trkpt>
      <trkpt lat="44.84201" lon="-0.52432">
        <ele>7</ele>
        <time>2016-01-12T12:39:06Z</time>
      </trkpt>
      <trkpt lat="44.84208" lon="-0.52439">
        <ele>6</ele>
        <time>2016-01-12T12:39:13Z</time>
      </trkpt>
      <trkpt lat="44.84215" lon="-0.52443">
        <ele>6</ele>
        <time>2016-01-12T12:39:18Z</time>
      </trkpt>
      <trkpt lat="44.84223" lon="-0.52447">
        <ele>5</ele>
        <time>2016-01-12T12:39:24Z</time>
      </trkpt>
      <trkpt lat="44.8423" lon="-0.52452">
        <ele>4</ele>
        <time>2016-01-12T12:39:33Z</time>
      </trkpt>
      <trkpt lat="44.84238" lon="-0.52456">
        <ele>4</ele>
        <time>2016-01-12T12:39:40Z</time>
      </trkpt>
      <trkpt lat="44.84246" lon="-0.5246">
        <ele>3</ele>
        <time>2016-01-12T12:39:45Z</time>
      </trkpt>
      <trkpt lat="44.84253" lon="-0.52466">
        <ele>2</ele>
        <time>2016-01-12T12:39:51Z</time>
      </trkpt>
      <trkpt lat="44.8426" lon="-0.52471">
        <ele>36.2</ele>
        <time>2016-01-12T12:40:00Z</time>
      </trkpt>
      <trkpt lat="44.84267" lon="-0.52476">
        <ele>-2</ele>
        <time>2016-01-12T12:40:05Z</time>
      </trkpt>
      <trkpt lat="44.84274" lon="-0.52482">
        <ele>-5</ele>
        <time>2016-01-12T12:40:11Z</time>
      </trkpt>
      <trkpt lat="44.84281" lon="-0.52487">
        <ele>-8</ele>
        <time>2016-01-12T12:40:18Z</time>
      </trkpt>
      <trkpt lat="44.84288" lon="-0.52494">
        <ele>-12</ele>
        <time>2016-01-12T12:40:25Z</time>
      </trkpt>
      <trkpt lat="44.84294" lon="-0.52499">
        <ele>-17</ele>
        <time>2016-01-12T12:40:31Z</time>
      </trkpt>
      <trkpt lat="44.84302" lon="-0.52504">
        <ele>-19</ele>
        <time>2016-01-12T12:40:36Z</time>
      </trkpt>
      <trkpt lat="44.8431" lon="-0.52508">
        <ele>-21</ele>
        <time>2016-01-12T12:40:41Z</time>
      </trkpt>
      <trkpt lat="44.84317" lon="-0.52511">
        <ele>-23</ele>
        <time>2016-01-12T12:40:48Z</time>
      </trkpt>
      <trkpt lat="44.84326" lon="-0.52516">
        <ele>-24</ele>
        <time>2016-01-12T12:40:53Z</time>
      </trkpt>
      <trkpt lat="44.84334" lon="-0.5252">
        <ele>-28</ele>
        <time>2016-01-12T12:41:00Z</time>
      </trkpt>
      <trkpt lat="44.84341" lon="-0.52523">
        <ele>-30</ele>
        <time>2016-01-12T12:41:06Z</time>
      </trkpt>
      <trkpt lat="44.84349" lon="-0.52525">
        <ele>-32</ele>
        <time>2016-01-12T12:41:12Z</time>
      </trkpt>
      <trkpt lat="44.84357" lon="-0.52527">
        <ele>-33</ele>
        <time>2016-01-12T12:41:17Z</time>
      </trkpt>
      <trkpt lat="44.84365" lon="-0.52528">
        <ele>-33</ele>
        <time>2016-01-12T12:41:22Z</time>
      </trkpt>
      <trkpt lat="44.84373" lon="-0.52528">
        <ele>-35</ele>
        <time>2016-01-12T12:41:28Z</time>
      </trkpt>
      <trkpt lat="44.84381" lon="-0.52529">
        <ele>-35</ele>
        <time>2016-01-12T12:41:34Z</time>
      </trkpt>
      <trkpt lat="44.8439" lon="-0.52532">
        <ele>-35</ele>
        <time>2016-01-12T12:41:42Z</time>
      </trkpt>
      <trkpt lat="44.84398" lon="-0.52536">
        <ele>-34</ele>
        <time>2016-01-12T12:41:52Z</time>
      </trkpt>
      <trkpt lat="44.84404" lon="-0.52542">
        <ele>-36</ele>
        <time>2016-01-12T12:41:58Z</time>
      </trkpt>
      <trkpt lat="44.84409" lon="-0.52551">
        <ele>-35</ele>
        <time>2016-01-12T12:42:03Z</time>
      </trkpt>
      <trkpt lat="44.84413" lon="-0.52564">
        <ele>-35</ele>
        <time>2016-01-12T12:42:08Z</time>
      </trkpt>
      <trkpt lat="44.84413" lon="-0.52576">
        <ele>-35</ele>
        <time>2016-01-12T12:42:13Z</time>
      </trkpt>
      <trkpt lat="44.84414" lon="-0.52587">
        <ele>-35</ele>
        <time>2016-01-12T12:42:18Z</time>
      </trkpt>
      <trkpt lat="44.84413" lon="-0.52597">
        <ele>-34</ele>
        <time>2016-01-12T12:42:23Z</time>
      </trkpt>
      <trkpt lat="44.84409" lon="-0.52608">
        <ele>-34</ele>
        <time>2016-01-12T12:42:29Z</time>
      </trkpt>
      <trkpt lat="44.84407" lon="-0.52618">
        <ele>-34</ele>
        <time>2016-01-12T12:42:35Z</time>
      </trkpt>
      <trkpt lat="44.84404" lon="-0.52628">
        <ele>-36</ele>
        <time>2016-01-12T12:42:40Z</time>
      </trkpt>
      <trkpt lat="44.844" lon="-0.52638">
        <ele>-35</ele>
        <time>2016-01-12T12:42:46Z</time>
      </trkpt>
      <trkpt lat="44.84396" lon="-0.52649">
        <ele>-38</ele>
        <time>2016-01-12T12:42:53Z</time>
      </trkpt>
      <trkpt lat="44.84393" lon="-0.52661">
        <ele>-40</ele>
        <time>2016-01-12T12:42:58Z</time>
      </trkpt>
      <trkpt lat="44.84393" lon="-0.52673">
        <ele>-42</ele>
        <time>2016-01-12T12:43:04Z</time>
      </trkpt>
      <trkpt lat="44.84391" lon="-0.52684">
        <ele>-45</ele>
        <time>2016-01-12T12:43:10Z</time>
      </trkpt>
      <trkpt lat="44.84385" lon="-0.52694">
        <ele>-48</ele>
        <time>2016-01-12T12:43:17Z</time>
      </trkpt>
      <trkpt lat="44.84383" lon="-0.52705">
        <ele>-51</ele>
        <time>2016-01-12T12:43:24Z</time>
      </trkpt>
      <trkpt lat="44.84382" lon="-0.52717">
        <ele>-49</ele>
        <time>2016-01-12T12:43:31Z</time>
      </trkpt>
      <trkpt lat="44.84382" lon="-0.52729">
        <ele>-50</ele>
        <time>2016-01-12T12:43:37Z</time>
      </trkpt>
      <trkpt lat="44.84378" lon="-0.52739">
        <ele>-43</ele>
        <time>2016-01-12T12:43:45Z</time>
      </trkpt>
      <trkpt lat="44.84376" lon="-0.52751">
        <ele>-44</ele>
        <time>2016-01-12T12:43:53Z</time>
      </trkpt>
      <trkpt lat="44.84376" lon="-0.52763">
        <ele>-45</ele>
        <time>2016-01-12T12:43:59Z</time>
      </trkpt>
      <trkpt lat="44.84377" lon="-0.52776">
        <ele>-42</ele>
        <time>2016-01-12T12:44:07Z</time>
      </trkpt>
      <trkpt lat="44.84377" lon="-0.52788">
        <ele>-42</ele>
        <time>2016-01-12T12:44:14Z</time>
      </trkpt>
      <trkpt lat="44.84376" lon="-0.528">
        <ele>-45</ele>
        <time>2016-01-12T12:44:21Z</time>
      </trkpt>
      <trkpt lat="44.84377" lon="-0.52812">
        <ele>-49</ele>
        <time>2016-01-12T12:44:28Z</time>
      </trkpt>
      <trkpt lat="44.84377" lon="-0.52824">
        <ele>-48</ele>
        <time>2016-01-12T12:44:35Z</time>
      </trkpt>
      <trkpt lat="44.84378" lon="-0.52836">
        <ele>-46</ele>
        <time>2016-01-12T12:44:41Z</time>
      </trkpt>
      <trkpt lat="44.84379" lon="-0.52848">
        <ele>-48</ele>
        <time>2016-01-12T12:44:47Z</time>
      </trkpt>
      <trkpt lat="44.84379" lon="-0.5286">
        <ele>-48</ele>
        <time>2016-01-12T12:44:53Z</time>
      </trkpt>
      <trkpt lat="44.84379" lon="-0.5287">
        <ele>-46</ele>
        <time>2016-01-12T12:44:58Z</time>
      </trkpt>
      <trkpt lat="44.84379" lon="-0.5288">
        <ele>-45</ele>
        <time>2016-01-12T12:45:03Z</time>
      </trkpt>
      <trkpt lat="44.84378" lon="-0.5289">
        <ele>-42</ele>
        <time>2016-01-12T12:45:07Z</time>
      </trkpt>
      <trkpt lat="44.84378" lon="-0.52901">
        <ele>-40</ele>
        <time>2016-01-12T12:45:12Z</time>
      </trkpt>
      <trkpt lat="44.84378" lon="-0.52912">
        <ele>-41</ele>
        <time>2016-01-12T12:45:19Z</time>
      </trkpt>
      <trkpt lat="44.84375" lon="-0.52923">
        <ele>-40</ele>
        <time>2016-01-12T12:45:28Z</time>
      </trkpt>
      <trkpt lat="44.8437" lon="-0.52932">
        <ele>-42</ele>
        <time>2016-01-12T12:45:34Z</time>
      </trkpt>
      <trkpt lat="44.8437" lon="-0.52945">
        <ele>-43</ele>
        <time>2016-01-12T12:45:40Z</time>
      </trkpt>
      <trkpt lat="44.84372" lon="-0.52957">
        <ele>-43</ele>
        <time>2016-01-12T12:45:47Z</time>
      </trkpt>
      <trkpt lat="44.84369" lon="-0.52968">
        <ele>-42</ele>
        <time>2016-01-12T12:45:54Z</time>
      </trkpt>
      <trkpt lat="44.84367" lon="-0.52979">
        <ele>-42</ele>
        <time>2016-01-12T12:45:59Z</time>
      </trkpt>
      <trkpt lat="44.84368" lon="-0.52992">
        <ele>-44</ele>
        <time>2016-01-12T12:46:06Z</time>
      </trkpt>
      <trkpt lat="44.84368" lon="-0.53004">
        <ele>-47</ele>
        <time>2016-01-12T12:46:14Z</time>
      </trkpt>
      <trkpt lat="44.84364" lon="-0.53013">
        <ele>-49</ele>
        <time>2016-01-12T12:46:20Z</time>
      </trkpt>
      <trkpt lat="44.84362" lon="-0.53025">
        <ele>-50</ele>
        <time>2016-01-12T12:46:28Z</time>
      </trkpt>
      <trkpt lat="44.84358" lon="-0.53036">
        <ele>-50</ele>
        <time>2016-01-12T12:46:35Z</time>
      </trkpt>
      <trkpt lat="44.84354" lon="-0.53046">
        <ele>-47</ele>
        <time>2016-01-12T12:47:26Z</time>
      </trkpt>
      <trkpt lat="44.8435" lon="-0.53056">
        <ele>-41</ele>
        <time>2016-01-12T12:47:33Z</time>
      </trkpt>
      <trkpt lat="44.84353" lon="-0.53067">
        <ele>-43</ele>
        <time>2016-01-12T12:47:39Z</time>
      </trkpt>
      <trkpt lat="44.84352" lon="-0.53078">
        <ele>-40</ele>
        <time>2016-01-12T12:47:46Z</time>
      </trkpt>
      <trkpt lat="44.8435" lon="-0.5309">
        <ele>-44</ele>
        <time>2016-01-12T12:47:53Z</time>
      </trkpt>
      <trkpt lat="44.84346" lon="-0.531">
        <ele>-51</ele>
        <time>2016-01-12T12:47:59Z</time>
      </trkpt>
      <trkpt lat="44.84343" lon="-0.53111">
        <ele>-54</ele>
        <time>2016-01-12T12:48:06Z</time>
      </trkpt>
      <trkpt lat="44.84347" lon="-0.53122">
        <ele>-53</ele>
        <time>2016-01-12T12:48:12Z</time>
      </trkpt>
      <trkpt lat="44.84349" lon="-0.53132">
        <ele>-53</ele>
        <time>2016-01-12T12:48:18Z</time>
      </trkpt>
      <trkpt lat="44.84352" lon="-0.53143">
        <ele>-49</ele>
        <time>2016-01-12T12:48:24Z</time>
      </trkpt>
      <trkpt lat="44.8435" lon="-0.53155">
        <ele>-41</ele>
        <time>2016-01-12T12:48:31Z</time>
      </trkpt>
      <trkpt lat="44.84347" lon="-0.53167">
        <ele>-40</ele>
        <time>2016-01-12T12:48:39Z</time>
      </trkpt>
      <trkpt lat="44.84343" lon="-0.53176">
        <ele>-41</ele>
        <time>2016-01-12T12:48:47Z</time>
      </trkpt>
      <trkpt lat="44.84339" lon="-0.53187">
        <ele>-42</ele>
        <time>2016-01-12T12:48:53Z</time>
      </trkpt>
      <trkpt lat="44.84336" lon="-0.53197">
        <ele>-42</ele>
        <time>2016-01-12T12:48:59Z</time>
      </trkpt>
      <trkpt lat="44.84332" lon="-0.53207">
        <ele>-41</ele>
        <time>2016-01-12T12:49:03Z</time>
      </trkpt>
      <trkpt lat="44.84329" lon="-0.53218">
        <ele>-42</ele>
        <time>2016-01-12T12:49:09Z</time>
      </trkpt>
      <trkpt lat="44.84328" lon="-0.5323">
        <ele>-43</ele>
        <time>2016-01-12T12:49:15Z</time>
      </trkpt>
      <trkpt lat="44.84326" lon="-0.53241">
        <ele>-44</ele>
        <time>2016-01-12T12:49:22Z</time>
      </trkpt>
      <trkpt lat="44.84326" lon="-0.53251">
        <ele>-46</ele>
        <time>2016-01-12T12:49:27Z</time>
      </trkpt>
      <trkpt lat="44.84325" lon="-0.53263">
        <ele>-44</ele>
        <time>2016-01-12T12:49:34Z</time>
      </trkpt>
      <trkpt lat="44.84327" lon="-0.53275">
        <ele>-37</ele>
        <time>2016-01-12T12:49:44Z</time>
      </trkpt>
      <trkpt lat="44.84326" lon="-0.53287">
        <ele>-42</ele>
        <time>2016-01-12T12:49:53Z</time>
      </trkpt>
      <trkpt lat="44.84325" lon="-0.53298">
        <ele>-40</ele>
        <time>2016-01-12T12:50:01Z</time>
      </trkpt>
      <trkpt lat="44.84322" lon="-0.53308">
        <ele>-42</ele>
        <time>2016-01-12T12:50:06Z</time>
      </trkpt>
      <trkpt lat="44.84322" lon="-0.5332">
        <ele>-42</ele>
        <time>2016-01-12T12:50:12Z</time>
      </trkpt>
      <trkpt lat="44.8432" lon="-0.5333">
        <ele>-43</ele>
        <time>2016-01-12T12:50:17Z</time>
      </trkpt>
      <trkpt lat="44.84321" lon="-0.53341">
        <ele>-43</ele>
        <time>2016-01-12T12:50:21Z</time>
      </trkpt>
      <trkpt lat="44.84318" lon="-0.53351">
        <ele>-46</ele>
        <time>2016-01-12T12:50:26Z</time>
      </trkpt>
      <trkpt lat="44.84314" lon="-0.53362">
        <ele>-45</ele>
        <time>2016-01-12T12:50:32Z</time>
      </trkpt>
      <trkpt lat="44.8431" lon="-0.53372">
        <ele>-45</ele>
        <time>2016-01-12T12:50:37Z</time>
      </trkpt>
      <trkpt lat="44.84307" lon="-0.53383">
        <ele>-45</ele>
        <time>2016-01-12T12:50:42Z</time>
      </trkpt>
      <trkpt lat="44.84304" lon="-0.53393">
        <ele>-46</ele>
        <time>2016-01-12T12:50:47Z</time>
      </trkpt>
      <trkpt lat="44.84301" lon="-0.53404">
        <ele>-48</ele>
        <time>2016-01-12T12:50:53Z</time>
      </trkpt>
      <trkpt lat="44.84299" lon="-0.53415">
        <ele>-49</ele>
        <time>2016-01-12T12:50:59Z</time>
      </trkpt>
      <trkpt lat="44.84295" lon="-0.53424">
        <ele>-50</ele>
        <time>2016-01-12T12:51:04Z</time>
      </trkpt>
      <trkpt lat="44.84293" lon="-0.53435">
        <ele>-52</ele>
        <time>2016-01-12T12:51:10Z</time>
      </trkpt>
      <trkpt lat="44.84291" lon="-0.53447">
        <ele>-55</ele>
        <time>2016-01-12T12:51:17Z</time>
      </trkpt>
      <trkpt lat="44.84294" lon="-0.53459">
        <ele>-56</ele>
        <time>2016-01-12T12:51:25Z</time>
      </trkpt>
      <trkpt lat="44.84294" lon="-0.53471">
        <ele>-54</ele>
        <time>2016-01-12T12:51:35Z</time>
      </trkpt>
      <trkpt lat="44.8429" lon="-0.53482">
        <ele>-54</ele>
        <time>2016-01-12T12:51:43Z</time>
      </trkpt>
      <trkpt lat="44.84288" lon="-0.53492">
        <ele>-55</ele>
        <time>2016-01-12T12:51:48Z</time>
      </trkpt>
      <trkpt lat="44.84283" lon="-0.53505">
        <ele>-56</ele>
        <time>2016-01-12T12:51:53Z</time>
      </trkpt>
      <trkpt lat="44.84285" lon="-0.53515">
        <ele>-53</ele>
        <time>2016-01-12T12:52:01Z</time>
      </trkpt>
      <trkpt lat="44.84286" lon="-0.53527">
        <ele>-54</ele>
        <time>2016-01-12T12:52:07Z</time>
      </trkpt>
      <trkpt lat="44.84284" lon="-0.53538">
        <ele>-53</ele>
        <time>2016-01-12T12:52:13Z</time>
      </trkpt>
      <trkpt lat="44.84284" lon="-0.5355">
        <ele>-47</ele>
        <time>2016-01-12T12:52:19Z</time>
      </trkpt>
      <trkpt lat="44.84282" lon="-0.53561">
        <ele>-47</ele>
        <time>2016-01-12T12:52:24Z</time>
      </trkpt>
      <trkpt lat="44.84281" lon="-0.53572">
        <ele>-44</ele>
        <time>2016-01-12T12:52:31Z</time>
      </trkpt>
      <trkpt lat="44.84278" lon="-0.53584">
        <ele>-45</ele>
        <time>2016-01-12T12:52:38Z</time>
      </trkpt>
      <trkpt lat="44.84275" lon="-0.53595">
        <ele>-47</ele>
        <time>2016-01-12T12:52:45Z</time>
      </trkpt>
      <trkpt lat="44.84275" lon="-0.53607">
        <ele>-46</ele>
        <time>2016-01-12T12:52:52Z</time>
      </trkpt>
      <trkpt lat="44.84275" lon="-0.53619">
        <ele>-46</ele>
        <time>2016-01-12T12:52:58Z</time>
      </trkpt>
      <trkpt lat="44.84273" lon="-0.53629">
        <ele>-46</ele>
        <time>2016-01-12T12:53:03Z</time>
      </trkpt>
      <trkpt lat="44.84271" lon="-0.53641">
        <ele>-47</ele>
        <time>2016-01-12T12:53:11Z</time>
      </trkpt>
      <trkpt lat="44.84269" lon="-0.53652">
        <ele>-48</ele>
        <time>2016-01-12T12:53:17Z</time>
      </trkpt>
      <trkpt lat="44.84267" lon="-0.53663">
        <ele>-50</ele>
        <time>2016-01-12T12:53:23Z</time>
      </trkpt>
      <trkpt lat="44.84264" lon="-0.53674">
        <ele>-49</ele>
        <time>2016-01-12T12:53:29Z</time>
      </trkpt>
      <trkpt lat="44.84262" lon="-0.53685">
        <ele>-50</ele>
        <time>2016-01-12T12:53:35Z</time>
      </trkpt>
      <trkpt lat="44.84261" lon="-0.53696">
        <ele>-52</ele>
        <time>2016-01-12T12:53:42Z</time>
      </trkpt>
      <trkpt lat="44.84258" lon="-0.53708">
        <ele>-54</ele>
        <time>2016-01-12T12:53:48Z</time>
      </trkpt>
      <trkpt lat="44.84256" lon="-0.5372">
        <ele>-55</ele>
        <time>2016-01-12T12:53:54Z</time>
      </trkpt>
      <trkpt lat="44.84255" lon="-0.5373">
        <ele>-55</ele>
        <time>2016-01-12T12:54:01Z</time>
      </trkpt>
      <trkpt lat="44.84251" lon="-0.53741">
        <ele>-53</ele>
        <time>2016-01-12T12:54:07Z</time>
      </trkpt>
      <trkpt lat="44.84249" lon="-0.53753">
        <ele>-51</ele>
        <time>2016-01-12T12:54:14Z</time>
      </trkpt>
      <trkpt lat="44.84248" lon="-0.53765">
        <ele>-50</ele>
        <time>2016-01-12T12:54:20Z</time>
      </trkpt>
      <trkpt lat="44.84246" lon="-0.53776">
        <ele>-51</ele>
        <time>2016-01-12T12:54:27Z</time>
      </trkpt>
      <trkpt lat="44.84243" lon="-0.53787">
        <ele>-53</ele>
        <time>2016-01-12T12:54:34Z</time>
      </trkpt>
      <trkpt lat="44.84245" lon="-0.53798">
        <ele>-51</ele>
        <time>2016-01-12T12:54:41Z</time>
      </trkpt>
      <trkpt lat="44.84245" lon="-0.5381">
        <ele>-52</ele>
        <time>2016-01-12T12:54:48Z</time>
      </trkpt>
      <trkpt lat="44.84242" lon="-0.53821">
        <ele>-56</ele>
        <time>2016-01-12T12:54:55Z</time>
      </trkpt>
      <trkpt lat="44.8424" lon="-0.53833">
        <ele>-56</ele>
        <time>2016-01-12T12:55:01Z</time>
      </trkpt>
      <trkpt lat="44.84235" lon="-0.53844">
        <ele>-57</ele>
        <time>2016-01-12T12:55:07Z</time>
      </trkpt>
      <trkpt lat="44.84232" lon="-0.53855">
        <ele>-57</ele>
        <time>2016-01-12T12:55:13Z</time>
      </trkpt>
      <trkpt lat="44.84234" lon="-0.53866">
        <ele>-56</ele>
        <time>2016-01-12T12:55:20Z</time>
      </trkpt>
      <trkpt lat="44.84236" lon="-0.53877">
        <ele>-55</ele>
        <time>2016-01-12T12:55:27Z</time>
      </trkpt>
      <trkpt lat="44.84232" lon="-0.53887">
        <ele>-60</ele>
        <time>2016-01-12T12:55:33Z</time>
      </trkpt>
      <trkpt lat="44.84228" lon="-0.53898">
        <ele>-62</ele>
        <time>2016-01-12T12:55:41Z</time>
      </trkpt>
      <trkpt lat="44.84227" lon="-0.53909">
        <ele>-61</ele>
        <time>2016-01-12T12:55:49Z</time>
      </trkpt>
      <trkpt lat="44.84226" lon="-0.53921">
        <ele>-59</ele>
        <time>2016-01-12T12:55:55Z</time>
      </trkpt>
      <trkpt lat="44.84226" lon="-0.53933">
        <ele>-59</ele>
        <time>2016-01-12T12:56:01Z</time>
      </trkpt>
      <trkpt lat="44.84223" lon="-0.53945">
        <ele>-60</ele>
        <time>2016-01-12T12:56:07Z</time>
      </trkpt>
      <trkpt lat="44.84222" lon="-0.53957">
        <ele>-61</ele>
        <time>2016-01-12T12:56:14Z</time>
      </trkpt>
      <trkpt lat="44.8422" lon="-0.53969">
        <ele>-59</ele>
        <time>2016-01-12T12:56:21Z</time>
      </trkpt>
      <trkpt lat="44.84222" lon="-0.53981">
        <ele>-57</ele>
        <time>2016-01-12T12:56:26Z</time>
      </trkpt>
      <trkpt lat="44.84221" lon="-0.53991">
        <ele>-57</ele>
        <time>2016-01-12T12:56:31Z</time>
      </trkpt>
      <trkpt lat="44.84219" lon="-0.54003">
        <ele>-58</ele>
        <time>2016-01-12T12:56:38Z</time>
      </trkpt>
      <trkpt lat="44.8422" lon="-0.54014">
        <ele>-58</ele>
        <time>2016-01-12T12:56:45Z</time>
      </trkpt>
      <trkpt lat="44.84228" lon="-0.54021">
        <ele>-55</ele>
        <time>2016-01-12T12:56:50Z</time>
      </trkpt>
      <trkpt lat="44.84231" lon="-0.54032">
        <ele>-54</ele>
        <time>2016-01-12T12:56:57Z</time>
      </trkpt>
      <trkpt lat="44.84229" lon="-0.54044">
        <ele>-54</ele>
        <time>2016-01-12T12:57:04Z</time>
      </trkpt>
      <trkpt lat="44.84227" lon="-0.54055">
        <ele>-57</ele>
        <time>2016-01-12T12:57:09Z</time>
      </trkpt>
      <trkpt lat="44.84227" lon="-0.54067">
        <ele>-55</ele>
        <time>2016-01-12T12:57:15Z</time>
      </trkpt>
      <trkpt lat="44.84227" lon="-0.54077">
        <ele>-53</ele>
        <time>2016-01-12T12:57:21Z</time>
      </trkpt>
      <trkpt lat="44.84226" lon="-0.54089">
        <ele>-53</ele>
        <time>2016-01-12T12:57:27Z</time>
      </trkpt>
      <trkpt lat="44.84225" lon="-0.54099">
        <ele>-54</ele>
        <time>2016-01-12T12:57:33Z</time>
      </trkpt>
      <trkpt lat="44.84228" lon="-0.54111">
        <ele>-52</ele>
        <time>2016-01-12T12:57:39Z</time>
      </trkpt>
      <trkpt lat="44.84226" lon="-0.54122">
        <ele>-54</ele>
        <time>2016-01-12T12:57:46Z</time>
      </trkpt>
      <trkpt lat="44.84227" lon="-0.54134">
        <ele>-55</ele>
        <time>2016-01-12T12:57:53Z</time>
      </trkpt>
      <trkpt lat="44.84234" lon="-0.54142">
        <ele>-51</ele>
        <time>2016-01-12T12:57:59Z</time>
      </trkpt>
      <trkpt lat="44.84242" lon="-0.54146">
        <ele>-48</ele>
        <time>2016-01-12T12:58:04Z</time>
      </trkpt>
      <trkpt lat="44.84241" lon="-0.54159">
        <ele>-47</ele>
        <time>2016-01-12T12:58:25Z</time>
      </trkpt>
      <trkpt lat="44.84245" lon="-0.5417">
        <ele>-49</ele>
        <time>2016-01-12T12:58:35Z</time>
      </trkpt>
      <trkpt lat="44.84244" lon="-0.54181">
        <ele>-50</ele>
        <time>2016-01-12T12:58:40Z</time>
      </trkpt>
      <trkpt lat="44.84244" lon="-0.54193">
        <ele>-49</ele>
        <time>2016-01-12T12:58:48Z</time>
      </trkpt>
      <trkpt lat="44.84241" lon="-0.54202">
        <ele>-49</ele>
        <time>2016-01-12T12:58:58Z</time>
      </trkpt>
      <trkpt lat="44.84244" lon="-0.5421">
        <ele>-48</ele>
        <time>2016-01-12T12:59:04Z</time>
      </trkpt>
      <trkpt lat="44.84253" lon="-0.54216">
        <ele>-46</ele>
        <time>2016-01-12T12:59:08Z</time>
      </trkpt>
      <trkpt lat="44.84252" lon="-0.54227">
        <ele>-45</ele>
        <time>2016-01-12T12:59:15Z</time>
      </trkpt>
      <trkpt lat="44.84249" lon="-0.54239">
        <ele>-47</ele>
        <time>2016-01-12T12:59:24Z</time>
      </trkpt>
      <trkpt lat="44.84246" lon="-0.54249">
        <ele>-45</ele>
        <time>2016-01-12T12:59:35Z</time>
      </trkpt>
      <trkpt lat="44.84243" lon="-0.5426">
        <ele>-46</ele>
        <time>2016-01-12T12:59:40Z</time>
      </trkpt>
      <trkpt lat="44.84244" lon="-0.54273">
        <ele>-49</ele>
        <time>2016-01-12T12:59:47Z</time>
      </trkpt>
      <trkpt lat="44.84248" lon="-0.54284">
        <ele>-53</ele>
        <time>2016-01-12T12:59:55Z</time>
      </trkpt>
      <trkpt lat="44.84255" lon="-0.5429">
        <ele>-53</ele>
        <time>2016-01-12T13:00:03Z</time>
      </trkpt>
      <trkpt lat="44.84262" lon="-0.54298">
        <ele>-55</ele>
        <time>2016-01-12T13:00:10Z</time>
      </trkpt>
      <trkpt lat="44.84267" lon="-0.54309">
        <ele>-57</ele>
        <time>2016-01-12T13:00:17Z</time>
      </trkpt>
      <trkpt lat="44.84274" lon="-0.54316">
        <ele>-55</ele>
        <time>2016-01-12T13:00:25Z</time>
      </trkpt>
      <trkpt lat="44.84267" lon="-0.54324">
        <ele>-54</ele>
        <time>2016-01-12T13:00:31Z</time>
      </trkpt>
      <trkpt lat="44.84262" lon="-0.54333">
        <ele>-55</ele>
        <time>2016-01-12T13:00:38Z</time>
      </trkpt>
      <trkpt lat="44.84262" lon="-0.54345">
        <ele>-56</ele>
        <time>2016-01-12T13:00:47Z</time>
      </trkpt>
      <trkpt lat="44.8426" lon="-0.54356">
        <ele>-58</ele>
        <time>2016-01-12T13:00:55Z</time>
      </trkpt>
      <trkpt lat="44.8426" lon="-0.54368">
        <ele>-56</ele>
        <time>2016-01-12T13:01:02Z</time>
      </trkpt>
      <trkpt lat="44.84258" lon="-0.5438">
        <ele>-55</ele>
        <time>2016-01-12T13:01:08Z</time>
      </trkpt>
      <trkpt lat="44.84255" lon="-0.54392">
        <ele>-54</ele>
        <time>2016-01-12T13:01:17Z</time>
      </trkpt>
      <trkpt lat="44.84251" lon="-0.54396">
        <ele>-51</ele>
        <time>2016-01-12T13:01:43Z</time>
      </trkpt>
      <trkpt lat="44.84245" lon="-0.54412">
        <ele>-47</ele>
        <time>2016-01-12T13:01:48Z</time>
      </trkpt>
      <trkpt lat="44.84242" lon="-0.54423">
        <ele>-41</ele>
        <time>2016-01-12T13:01:56Z</time>
      </trkpt>
      <trkpt lat="44.84239" lon="-0.54433">
        <ele>-37</ele>
        <time>2016-01-12T13:02:05Z</time>
      </trkpt>
      <trkpt lat="44.84237" lon="-0.54438">
        <ele>-38</ele>
        <time>2016-01-12T13:02:20Z</time>
      </trkpt>
      <trkpt lat="44.84233" lon="-0.54458">
        <ele>-35</ele>
        <time>2016-01-12T13:02:24Z</time>
      </trkpt>
      <trkpt lat="44.84233" lon="-0.54458">
        <ele>-35</ele>
        <time>2016-01-12T13:02:29Z</time>
      </trkpt>
      <trkpt lat="44.84227" lon="-0.54479">
        <ele>-36</ele>
        <time>2016-01-12T13:02:34Z</time>
      </trkpt>
      <trkpt lat="44.84226" lon="-0.54484">
        <ele>-36</ele>
        <time>2016-01-12T13:02:41Z</time>
      </trkpt>
      <trkpt lat="44.84221" lon="-0.545">
        <ele>-37</ele>
        <time>2016-01-12T13:02:46Z</time>
      </trkpt>
      <trkpt lat="44.84214" lon="-0.54516">
        <ele>-36</ele>
        <time>2016-01-12T13:02:50Z</time>
      </trkpt>
      <trkpt lat="44.8421" lon="-0.54527">
        <ele>-35</ele>
        <time>2016-01-12T13:02:54Z</time>
      </trkpt>
      <trkpt lat="44.84207" lon="-0.54537">
        <ele>-38</ele>
        <time>2016-01-12T13:03:00Z</time>
      </trkpt>
      <trkpt lat="44.84203" lon="-0.54548">
        <ele>-41</ele>
        <time>2016-01-12T13:03:06Z</time>
      </trkpt>
      <trkpt lat="44.842" lon="-0.54558">
        <ele>-42</ele>
        <time>2016-01-12T13:03:12Z</time>
      </trkpt>
      <trkpt lat="44.84195" lon="-0.5457">
        <ele>-35</ele>
        <time>2016-01-12T13:03:17Z</time>
      </trkpt>
      <trkpt lat="44.84191" lon="-0.54581">
        <ele>-34</ele>
        <time>2016-01-12T13:03:22Z</time>
      </trkpt>
      <trkpt lat="44.84188" lon="-0.54591">
        <ele>-35</ele>
        <time>2016-01-12T13:03:29Z</time>
      </trkpt>
      <trkpt lat="44.84184" lon="-0.546">
        <ele>-34</ele>
        <time>2016-01-12T13:03:33Z</time>
      </trkpt>
      <trkpt lat="44.84181" lon="-0.54611">
        <ele>-31</ele>
        <time>2016-01-12T13:03:38Z</time>
      </trkpt>
      <trkpt lat="44.84177" lon="-0.54622">
        <ele>-34</ele>
        <time>2016-01-12T13:03:45Z</time>
      </trkpt>
      <trkpt lat="44.84174" lon="-0.54634">
        <ele>-36</ele>
        <time>2016-01-12T13:03:58Z</time>
      </trkpt>
      <trkpt lat="44.8417" lon="-0.54645">
        <ele>-38</ele>
        <time>2016-01-12T13:04:07Z</time>
      </trkpt>
      <trkpt lat="44.84172" lon="-0.54657">
        <ele>-41</ele>
        <time>2016-01-12T13:04:13Z</time>
      </trkpt>
      <trkpt lat="44.84172" lon="-0.54669">
        <ele>-48</ele>
        <time>2016-01-12T13:04:18Z</time>
      </trkpt>
      <trkpt lat="44.84171" lon="-0.54681">
        <ele>-48</ele>
        <time>2016-01-12T13:04:26Z</time>
      </trkpt>
      <trkpt lat="44.84166" lon="-0.5469">
        <ele>-46</ele>
        <time>2016-01-12T13:04:32Z</time>
      </trkpt>
      <trkpt lat="44.8416" lon="-0.54698">
        <ele>-47</ele>
        <time>2016-01-12T13:04:37Z</time>
      </trkpt>
      <trkpt lat="44.84153" lon="-0.54704">
        <ele>-48</ele>
        <time>2016-01-12T13:04:47Z</time>
      </trkpt>
      <trkpt lat="44.84153" lon="-0.54716">
        <ele>-55</ele>
        <time>2016-01-12T13:05:03Z</time>
      </trkpt>
      <trkpt lat="44.84153" lon="-0.54718">
        <ele>-56</ele>
        <time>2016-01-12T13:05:19Z</time>
      </trkpt>
      <trkpt lat="44.84152" lon="-0.54736">
        <ele>-59</ele>
        <time>2016-01-12T13:05:24Z</time>
      </trkpt>
      <trkpt lat="44.84153" lon="-0.54747">
        <ele>-64</ele>
        <time>2016-01-12T13:05:30Z</time>
      </trkpt>
      <trkpt lat="44.84147" lon="-0.5476">
        <ele>-66</ele>
        <time>2016-01-12T13:05:34Z</time>
      </trkpt>
      <trkpt lat="44.8414" lon="-0.5477">
        <ele>-55</ele>
        <time>2016-01-12T13:05:39Z</time>
      </trkpt>
      <trkpt lat="44.84134" lon="-0.5478">
        <ele>-45</ele>
        <time>2016-01-12T13:05:43Z</time>
      </trkpt>
      <trkpt lat="44.84127" lon="-0.54792">
        <ele>-35</ele>
        <time>2016-01-12T13:05:48Z</time>
      </trkpt>
      <trkpt lat="44.84125" lon="-0.54803">
        <ele>-33</ele>
        <time>2016-01-12T13:05:53Z</time>
      </trkpt>
      <trkpt lat="44.84125" lon="-0.54815">
        <ele>-29</ele>
        <time>2016-01-12T13:06:01Z</time>
      </trkpt>
      <trkpt lat="44.84123" lon="-0.54828">
        <ele>-32</ele>
        <time>2016-01-12T13:06:06Z</time>
      </trkpt>
      <trkpt lat="44.8412" lon="-0.54838">
        <ele>-34</ele>
        <time>2016-01-12T13:06:10Z</time>
      </trkpt>
      <trkpt lat="44.84116" lon="-0.54849">
        <ele>-37</ele>
        <time>2016-01-12T13:06:16Z</time>
      </trkpt>
      <trkpt lat="44.84113" lon="-0.54859">
        <ele>-35</ele>
        <time>2016-01-12T13:06:21Z</time>
      </trkpt>
      <trkpt lat="44.84111" lon="-0.5487">
        <ele>-34</ele>
        <time>2016-01-12T13:06:28Z</time>
      </trkpt>
      <trkpt lat="44.84111" lon="-0.54882">
        <ele>-34</ele>
        <time>2016-01-12T13:06:39Z</time>
      </trkpt>
      <trkpt lat="44.84108" lon="-0.54893">
        <ele>-32</ele>
        <time>2016-01-12T13:06:47Z</time>
      </trkpt>
      <trkpt lat="44.84109" lon="-0.54903">
        <ele>-29</ele>
        <time>2016-01-12T13:06:54Z</time>
      </trkpt>
      <trkpt lat="44.84106" lon="-0.54916">
        <ele>-26</ele>
        <time>2016-01-12T13:06:58Z</time>
      </trkpt>
      <trkpt lat="44.84105" lon="-0.54927">
        <ele>-24</ele>
        <time>2016-01-12T13:07:05Z</time>
      </trkpt>
      <trkpt lat="44.84104" lon="-0.54938">
        <ele>-22</ele>
        <time>2016-01-12T13:07:11Z</time>
      </trkpt>
      <trkpt lat="44.84102" lon="-0.54949">
        <ele>-18</ele>
        <time>2016-01-12T13:07:16Z</time>
      </trkpt>
      <trkpt lat="44.84101" lon="-0.54962">
        <ele>-16</ele>
        <time>2016-01-12T13:07:26Z</time>
      </trkpt>
      <trkpt lat="44.84098" lon="-0.54973">
        <ele>-14</ele>
        <time>2016-01-12T13:07:32Z</time>
      </trkpt>
      <trkpt lat="44.84095" lon="-0.54985">
        <ele>-11</ele>
        <time>2016-01-12T13:07:37Z</time>
      </trkpt>
      <trkpt lat="44.84093" lon="-0.54996">
        <ele>-10</ele>
        <time>2016-01-12T13:07:41Z</time>
      </trkpt>
      <trkpt lat="44.84096" lon="-0.55007">
        <ele>-12</ele>
        <time>2016-01-12T13:07:49Z</time>
      </trkpt>
      <trkpt lat="44.84097" lon="-0.55018">
        <ele>-17</ele>
        <time>2016-01-12T13:07:58Z</time>
      </trkpt>
      <trkpt lat="44.84097" lon="-0.5503">
        <ele>-21</ele>
        <time>2016-01-12T13:08:07Z</time>
      </trkpt>
      <trkpt lat="44.84095" lon="-0.55042">
        <ele>-21</ele>
        <time>2016-01-12T13:08:13Z</time>
      </trkpt>
      <trkpt lat="44.84093" lon="-0.55054">
        <ele>-20</ele>
        <time>2016-01-12T13:08:20Z</time>
      </trkpt>
      <trkpt lat="44.84091" lon="-0.55066">
        <ele>-18</ele>
        <time>2016-01-12T13:08:25Z</time>
      </trkpt>
      <trkpt lat="44.84089" lon="-0.55076">
        <ele>-20</ele>
        <time>2016-01-12T13:08:30Z</time>
      </trkpt>
      <trkpt lat="44.84087" lon="-0.55088">
        <ele>-24</ele>
        <time>2016-01-12T13:08:36Z</time>
      </trkpt>
      <trkpt lat="44.84085" lon="-0.55099">
        <ele>-24</ele>
        <time>2016-01-12T13:08:42Z</time>
      </trkpt>
      <trkpt lat="44.84081" lon="-0.55113">
        <ele>-14</ele>
        <time>2016-01-12T13:08:46Z</time>
      </trkpt>
      <trkpt lat="44.84082" lon="-0.55125">
        <ele>-16</ele>
        <time>2016-01-12T13:08:55Z</time>
      </trkpt>
      <trkpt lat="44.84079" lon="-0.55136">
        <ele>-17</ele>
        <time>2016-01-12T13:09:06Z</time>
      </trkpt>
      <trkpt lat="44.84079" lon="-0.55148">
        <ele>-17</ele>
        <time>2016-01-12T13:09:13Z</time>
      </trkpt>
      <trkpt lat="44.84078" lon="-0.55158">
        <ele>-21</ele>
        <time>2016-01-12T13:09:18Z</time>
      </trkpt>
      <trkpt lat="44.84075" lon="-0.5517">
        <ele>-25</ele>
        <time>2016-01-12T13:09:24Z</time>
      </trkpt>
      <trkpt lat="44.84074" lon="-0.55179">
        <ele>-29</ele>
        <time>2016-01-12T13:09:47Z</time>
      </trkpt>
      <trkpt lat="44.84071" lon="-0.5519">
        <ele>-38</ele>
        <time>2016-01-12T13:09:52Z</time>
      </trkpt>
      <trkpt lat="44.84071" lon="-0.55202">
        <ele>-42</ele>
        <time>2016-01-12T13:10:01Z</time>
      </trkpt>
      <trkpt lat="44.84071" lon="-0.55213">
        <ele>-46</ele>
        <time>2016-01-12T13:10:09Z</time>
      </trkpt>
      <trkpt lat="44.84068" lon="-0.55223">
        <ele>-49</ele>
        <time>2016-01-12T13:10:14Z</time>
      </trkpt>
      <trkpt lat="44.84066" lon="-0.55235">
        <ele>-55</ele>
        <time>2016-01-12T13:10:19Z</time>
      </trkpt>
      <trkpt lat="44.84067" lon="-0.55247">
        <ele>-64</ele>
        <time>2016-01-12T13:10:27Z</time>
      </trkpt>
      <trkpt lat="44.84069" lon="-0.5526">
        <ele>-76</ele>
        <time>2016-01-12T13:10:37Z</time>
      </trkpt>
      <trkpt lat="44.84074" lon="-0.5527">
        <ele>-88</ele>
        <time>2016-01-12T13:10:47Z</time>
      </trkpt>
      <trkpt lat="44.8408" lon="-0.55279">
        <ele>-97</ele>
        <time>2016-01-12T13:10:56Z</time>
      </trkpt>
      <trkpt lat="44.84082" lon="-0.55291">
        <ele>-104</ele>
        <time>2016-01-12T13:11:05Z</time>
      </trkpt>
      <trkpt lat="44.84081" lon="-0.55302">
        <ele>-108</ele>
        <time>2016-01-12T13:11:10Z</time>
      </trkpt>
      <trkpt lat="44.84083" lon="-0.55314">
        <ele>-108</ele>
        <time>2016-01-12T13:11:15Z</time>
      </trkpt>
      <trkpt lat="44.84073" lon="-0.55329">
        <ele>-84</ele>
        <time>2016-01-12T13:11:19Z</time>
      </trkpt>
      <trkpt lat="44.84068" lon="-0.55336">
        <ele>-66</ele>
        <time>2016-01-12T13:11:23Z</time>
      </trkpt>
      <trkpt lat="44.84065" lon="-0.55348">
        <ele>-33</ele>
        <time>2016-01-12T13:11:33Z</time>
      </trkpt>
      <trkpt lat="44.84064" lon="-0.5536">
        <ele>-28</ele>
        <time>2016-01-12T13:11:39Z</time>
      </trkpt>
      <trkpt lat="44.84067" lon="-0.5537">
        <ele>-22</ele>
        <time>2016-01-12T13:11:54Z</time>
      </trkpt>
      <trkpt lat="44.84072" lon="-0.5538">
        <ele>-19</ele>
        <time>2016-01-12T13:12:01Z</time>
      </trkpt>
      <trkpt lat="44.84078" lon="-0.55388">
        <ele>-18</ele>
        <time>2016-01-12T13:12:15Z</time>
      </trkpt>
      <trkpt lat="44.84072" lon="-0.55404">
        <ele>-21</ele>
        <time>2016-01-12T13:12:19Z</time>
      </trkpt>
      <trkpt lat="44.8407" lon="-0.55417">
        <ele>-25</ele>
        <time>2016-01-12T13:12:23Z</time>
      </trkpt>
      <trkpt lat="44.84064" lon="-0.55432">
        <ele>-23</ele>
        <time>2016-01-12T13:12:28Z</time>
      </trkpt>
      <trkpt lat="44.84062" lon="-0.55443">
        <ele>-22</ele>
        <time>2016-01-12T13:12:33Z</time>
      </trkpt>
      <trkpt lat="44.8406" lon="-0.55455">
        <ele>-12</ele>
        <time>2016-01-12T13:12:40Z</time>
      </trkpt>
      <trkpt lat="44.84059" lon="-0.55467">
        <ele>-30</ele>
        <time>2016-01-12T13:12:51Z</time>
      </trkpt>
      <trkpt lat="44.84059" lon="-0.5548">
        <ele>-35</ele>
        <time>2016-01-12T13:12:58Z</time>
      </trkpt>
      <trkpt lat="44.8406" lon="-0.55491">
        <ele>-38</ele>
        <time>2016-01-12T13:13:04Z</time>
      </trkpt>
      <trkpt lat="44.84056" lon="-0.55506">
        <ele>-43</ele>
        <time>2016-01-12T13:13:08Z</time>
      </trkpt>
      <trkpt lat="44.84054" lon="-0.55516">
        <ele>-47</ele>
        <time>2016-01-12T13:13:12Z</time>
      </trkpt>
      <trkpt lat="44.84051" lon="-0.55528">
        <ele>-52</ele>
        <time>2016-01-12T13:13:20Z</time>
      </trkpt>
      <trkpt lat="44.8405" lon="-0.55539">
        <ele>-53</ele>
        <time>2016-01-12T13:13:24Z</time>
      </trkpt>
      <trkpt lat="44.84047" lon="-0.5555">
        <ele>-52</ele>
        <time>2016-01-12T13:13:29Z</time>
      </trkpt>
      <trkpt lat="44.84046" lon="-0.55561">
        <ele>-54</ele>
        <time>2016-01-12T13:13:35Z</time>
      </trkpt>
      <trkpt lat="44.84046" lon="-0.55572">
        <ele>-57</ele>
        <time>2016-01-12T13:13:42Z</time>
      </trkpt>
      <trkpt lat="44.8405" lon="-0.55583">
        <ele>-59</ele>
        <time>2016-01-12T13:13:50Z</time>
      </trkpt>
      <trkpt lat="44.84047" lon="-0.55595">
        <ele>-56</ele>
        <time>2016-01-12T13:13:54Z</time>
      </trkpt>
      <trkpt lat="44.84048" lon="-0.55607">
        <ele>-55</ele>
        <time>2016-01-12T13:14:01Z</time>
      </trkpt>
      <trkpt lat="44.84046" lon="-0.55619">
        <ele>-63</ele>
        <time>2016-01-12T13:14:14Z</time>
      </trkpt>
      <trkpt lat="44.84044" lon="-0.5563">
        <ele>-67</ele>
        <time>2016-01-12T13:14:23Z</time>
      </trkpt>
      <trkpt lat="44.84038" lon="-0.55645">
        <ele>-66</ele>
        <time>2016-01-12T13:14:28Z</time>
      </trkpt>
      <trkpt lat="44.84027" lon="-0.55663">
        <ele>-60</ele>
        <time>2016-01-12T13:14:33Z</time>
      </trkpt>
      <trkpt lat="44.84024" lon="-0.55674">
        <ele>-56</ele>
        <time>2016-01-12T13:14:38Z</time>
      </trkpt>
      <trkpt lat="44.84023" lon="-0.55684">
        <ele>-51</ele>
        <time>2016-01-12T13:14:42Z</time>
      </trkpt>
      <trkpt lat="44.84022" lon="-0.55696">
        <ele>-46</ele>
        <time>2016-01-12T13:14:47Z</time>
      </trkpt>
      <trkpt lat="44.8402" lon="-0.55707">
        <ele>-44</ele>
        <time>2016-01-12T13:14:55Z</time>
      </trkpt>
      <trkpt lat="44.84019" lon="-0.5572">
        <ele>-32</ele>
        <time>2016-01-12T13:15:09Z</time>
      </trkpt>
      <trkpt lat="44.84019" lon="-0.55731">
        <ele>-31</ele>
        <time>2016-01-12T13:15:15Z</time>
      </trkpt>
      <trkpt lat="44.84022" lon="-0.55746">
        <ele>-31</ele>
        <time>2016-01-12T13:15:19Z</time>
      </trkpt>
      <trkpt lat="44.84016" lon="-0.55755">
        <ele>-36</ele>
        <time>2016-01-12T13:15:27Z</time>
      </trkpt>
      <trkpt lat="44.84012" lon="-0.55767">
        <ele>-42</ele>
        <time>2016-01-12T13:15:34Z</time>
      </trkpt>
      <trkpt lat="44.84011" lon="-0.55777">
        <ele>-40</ele>
        <time>2016-01-12T13:15:41Z</time>
      </trkpt>
      <trkpt lat="44.84004" lon="-0.55785">
        <ele>-40</ele>
        <time>2016-01-12T13:15:50Z</time>
      </trkpt>
      <trkpt lat="44.84004" lon="-0.55798">
        <ele>-38</ele>
        <time>2016-01-12T13:15:59Z</time>
      </trkpt>
      <trkpt lat="44.83997" lon="-0.55796">
        <ele>-42</ele>
        <time>2016-01-12T13:16:04Z</time>
      </trkpt>
      <trkpt lat="44.83989" lon="-0.558">
        <ele>-45</ele>
        <time>2016-01-12T13:16:12Z</time>
      </trkpt>
      <trkpt lat="44.83983" lon="-0.55809">
        <ele>-47</ele>
        <time>2016-01-12T13:16:22Z</time>
      </trkpt>
      <trkpt lat="44.83974" lon="-0.55812">
        <ele>-49</ele>
        <time>2016-01-12T13:16:32Z</time>
      </trkpt>
      <trkpt lat="44.83969" lon="-0.5582">
        <ele>-52</ele>
        <time>2016-01-12T13:16:37Z</time>
      </trkpt>
      <trkpt lat="44.83963" lon="-0.55832">
        <ele>-50</ele>
        <time>2016-01-12T13:16:42Z</time>
      </trkpt>
      <trkpt lat="44.83959" lon="-0.55842">
        <ele>-51</ele>
        <time>2016-01-12T13:16:47Z</time>
      </trkpt>
      <trkpt lat="44.83954" lon="-0.5585">
        <ele>-53</ele>
        <time>2016-01-12T13:16:53Z</time>
      </trkpt>
      <trkpt lat="44.83949" lon="-0.5586">
        <ele>-55</ele>
        <time>2016-01-12T13:17:00Z</time>
      </trkpt>
      <trkpt lat="44.83943" lon="-0.55869">
        <ele>-57</ele>
        <time>2016-01-12T13:17:07Z</time>
      </trkpt>
      <trkpt lat="44.83938" lon="-0.5588">
        <ele>-58</ele>
        <time>2016-01-12T13:17:14Z</time>
      </trkpt>
      <trkpt lat="44.83932" lon="-0.55887">
        <ele>-57</ele>
        <time>2016-01-12T13:17:21Z</time>
      </trkpt>
      <trkpt lat="44.83929" lon="-0.55897">
        <ele>-56</ele>
        <time>2016-01-12T13:17:26Z</time>
      </trkpt>
      <trkpt lat="44.83928" lon="-0.55908">
        <ele>-57</ele>
        <time>2016-01-12T13:17:31Z</time>
      </trkpt>
      <trkpt lat="44.83928" lon="-0.55919">
        <ele>-57</ele>
        <time>2016-01-12T13:17:36Z</time>
      </trkpt>
      <trkpt lat="44.83931" lon="-0.5593">
        <ele>-56</ele>
        <time>2016-01-12T13:17:42Z</time>
      </trkpt>
      <trkpt lat="44.83923" lon="-0.55931">
        <ele>-59</ele>
        <time>2016-01-12T13:17:57Z</time>
      </trkpt>
      <trkpt lat="44.83915" lon="-0.55937">
        <ele>-55</ele>
        <time>2016-01-12T13:18:02Z</time>
      </trkpt>
      <trkpt lat="44.83908" lon="-0.55943">
        <ele>-41</ele>
        <time>2016-01-12T13:18:25Z</time>
      </trkpt>
      <trkpt lat="44.83903" lon="-0.55932">
        <ele>-44</ele>
        <time>2016-01-12T13:18:30Z</time>
      </trkpt>
      <trkpt lat="44.83897" lon="-0.55923">
        <ele>-47</ele>
        <time>2016-01-12T13:18:36Z</time>
      </trkpt>
      <trkpt lat="44.83891" lon="-0.55914">
        <ele>-47</ele>
        <time>2016-01-12T13:18:41Z</time>
      </trkpt>
      <trkpt lat="44.83885" lon="-0.55906">
        <ele>-50</ele>
        <time>2016-01-12T13:18:47Z</time>
      </trkpt>
      <trkpt lat="44.83878" lon="-0.55901">
        <ele>-50</ele>
        <time>2016-01-12T13:18:54Z</time>
      </trkpt>
      <trkpt lat="44.83871" lon="-0.55895">
        <ele>-49</ele>
        <time>2016-01-12T13:19:00Z</time>
      </trkpt>
      <trkpt lat="44.83863" lon="-0.55893">
        <ele>-46</ele>
        <time>2016-01-12T13:19:06Z</time>
      </trkpt>
      <trkpt lat="44.83856" lon="-0.55886">
        <ele>-45</ele>
        <time>2016-01-12T13:19:13Z</time>
      </trkpt>
      <trkpt lat="44.8385" lon="-0.55877">
        <ele>-41</ele>
        <time>2016-01-12T13:19:23Z</time>
      </trkpt>
      <trkpt lat="44.83846" lon="-0.55867">
        <ele>-41</ele>
        <time>2016-01-12T13:19:30Z</time>
      </trkpt>
      <trkpt lat="44.8384" lon="-0.55858">
        <ele>-45</ele>
        <time>2016-01-12T13:19:39Z</time>
      </trkpt>
      <trkpt lat="44.83834" lon="-0.5585">
        <ele>-42</ele>
        <time>2016-01-12T13:19:47Z</time>
      </trkpt>
      <trkpt lat="44.83828" lon="-0.55842">
        <ele>-44</ele>
        <time>2016-01-12T13:19:56Z</time>
      </trkpt>
      <trkpt lat="44.83822" lon="-0.55834">
        <ele>-46</ele>
        <time>2016-01-12T13:20:02Z</time>
      </trkpt>
      <trkpt lat="44.83816" lon="-0.55826">
        <ele>-46</ele>
        <time>2016-01-12T13:20:07Z</time>
      </trkpt>
      <trkpt lat="44.83809" lon="-0.5582">
        <ele>-48</ele>
        <time>2016-01-12T13:20:15Z</time>
      </trkpt>
      <trkpt lat="44.83803" lon="-0.55812">
        <ele>-50</ele>
        <time>2016-01-12T13:20:21Z</time>
      </trkpt>
      <trkpt lat="44.83796" lon="-0.55805">
        <ele>-53</ele>
        <time>2016-01-12T13:20:30Z</time>
      </trkpt>
      <trkpt lat="44.83789" lon="-0.55797">
        <ele>-56</ele>
        <time>2016-01-12T13:20:37Z</time>
      </trkpt>
      <trkpt lat="44.83784" lon="-0.55787">
        <ele>-56</ele>
        <time>2016-01-12T13:20:44Z</time>
      </trkpt>
      <trkpt lat="44.83778" lon="-0.5578">
        <ele>-57</ele>
        <time>2016-01-12T13:20:50Z</time>
      </trkpt>
      <trkpt lat="44.83772" lon="-0.55771">
        <ele>-57</ele>
        <time>2016-01-12T13:20:57Z</time>
      </trkpt>
      <trkpt lat="44.83768" lon="-0.55764">
        <ele>-57</ele>
        <time>2016-01-12T13:21:03Z</time>
      </trkpt>
      <trkpt lat="44.8376" lon="-0.55758">
        <ele>-58</ele>
        <time>2016-01-12T13:21:09Z</time>
      </trkpt>
      <trkpt lat="44.83752" lon="-0.55758">
        <ele>-57</ele>
        <time>2016-01-12T13:21:17Z</time>
      </trkpt>
      <trkpt lat="44.83744" lon="-0.55753">
        <ele>-57</ele>
        <time>2016-01-12T13:21:24Z</time>
      </trkpt>
      <trkpt lat="44.83737" lon="-0.55746">
        <ele>-57</ele>
        <time>2016-01-12T13:21:31Z</time>
      </trkpt>
      <trkpt lat="44.83731" lon="-0.55738">
        <ele>-56</ele>
        <time>2016-01-12T13:21:37Z</time>
      </trkpt>
      <trkpt lat="44.83726" lon="-0.55729">
        <ele>-57</ele>
        <time>2016-01-12T13:21:45Z</time>
      </trkpt>
      <trkpt lat="44.8372" lon="-0.5572">
        <ele>-55</ele>
        <time>2016-01-12T13:21:52Z</time>
      </trkpt>
      <trkpt lat="44.83715" lon="-0.5571">
        <ele>-55</ele>
        <time>2016-01-12T13:22:00Z</time>
      </trkpt>
      <trkpt lat="44.83712" lon="-0.55699">
        <ele>-51</ele>
        <time>2016-01-12T13:22:09Z</time>
      </trkpt>
      <trkpt lat="44.83708" lon="-0.55689">
        <ele>-53</ele>
        <time>2016-01-12T13:22:16Z</time>
      </trkpt>
      <trkpt lat="44.83704" lon="-0.55679">
        <ele>-54</ele>
        <time>2016-01-12T13:22:22Z</time>
      </trkpt>
      <trkpt lat="44.83699" lon="-0.5567">
        <ele>-56</ele>
        <time>2016-01-12T13:22:28Z</time>
      </trkpt>
      <trkpt lat="44.83694" lon="-0.55659">
        <ele>-56</ele>
        <time>2016-01-12T13:22:36Z</time>
      </trkpt>
      <trkpt lat="44.83689" lon="-0.5565">
        <ele>-57</ele>
        <time>2016-01-12T13:22:43Z</time>
      </trkpt>
      <trkpt lat="44.83684" lon="-0.55642">
        <ele>-57</ele>
        <time>2016-01-12T13:22:49Z</time>
      </trkpt>
      <trkpt lat="44.83678" lon="-0.55634">
        <ele>-55</ele>
        <time>2016-01-12T13:22:55Z</time>
      </trkpt>
      <trkpt lat="44.83675" lon="-0.55623">
        <ele>-53</ele>
        <time>2016-01-12T13:23:05Z</time>
      </trkpt>
      <trkpt lat="44.83673" lon="-0.55612">
        <ele>-54</ele>
        <time>2016-01-12T13:23:12Z</time>
      </trkpt>
      <trkpt lat="44.83669" lon="-0.55603">
        <ele>-53</ele>
        <time>2016-01-12T13:23:17Z</time>
      </trkpt>
      <trkpt lat="44.83662" lon="-0.55595">
        <ele>-54</ele>
        <time>2016-01-12T13:23:25Z</time>
      </trkpt>
      <trkpt lat="44.83658" lon="-0.55585">
        <ele>-52</ele>
        <time>2016-01-12T13:23:32Z</time>
      </trkpt>
      <trkpt lat="44.83652" lon="-0.55577">
        <ele>-50</ele>
        <time>2016-01-12T13:23:47Z</time>
      </trkpt>
      <trkpt lat="44.83647" lon="-0.55568">
        <ele>-49</ele>
        <time>2016-01-12T13:23:55Z</time>
      </trkpt>
      <trkpt lat="44.83642" lon="-0.55558">
        <ele>-49</ele>
        <time>2016-01-12T13:24:02Z</time>
      </trkpt>
      <trkpt lat="44.83637" lon="-0.55549">
        <ele>-49</ele>
        <time>2016-01-12T13:24:08Z</time>
      </trkpt>
      <trkpt lat="44.83631" lon="-0.5554">
        <ele>-50</ele>
        <time>2016-01-12T13:24:15Z</time>
      </trkpt>
      <trkpt lat="44.83627" lon="-0.55531">
        <ele>-51</ele>
        <time>2016-01-12T13:24:23Z</time>
      </trkpt>
      <trkpt lat="44.83621" lon="-0.55522">
        <ele>-51</ele>
        <time>2016-01-12T13:24:32Z</time>
      </trkpt>
      <trkpt lat="44.83617" lon="-0.55515">
        <ele>-52</ele>
        <time>2016-01-12T13:24:41Z</time>
      </trkpt>
      <trkpt lat="44.8361" lon="-0.55507">
        <ele>-51</ele>
        <time>2016-01-12T13:24:48Z</time>
      </trkpt>
      <trkpt lat="44.83605" lon="-0.55497">
        <ele>-52</ele>
        <time>2016-01-12T13:24:56Z</time>
      </trkpt>
      <trkpt lat="44.83599" lon="-0.55488">
        <ele>-53</ele>
        <time>2016-01-12T13:25:03Z</time>
      </trkpt>
      <trkpt lat="44.83594" lon="-0.5548">
        <ele>-54</ele>
        <time>2016-01-12T13:25:09Z</time>
      </trkpt>
      <trkpt lat="44.83588" lon="-0.5547">
        <ele>-55</ele>
        <time>2016-01-12T13:25:16Z</time>
      </trkpt>
      <trkpt lat="44.83583" lon="-0.55461">
        <ele>-56</ele>
        <time>2016-01-12T13:25:25Z</time>
      </trkpt>
      <trkpt lat="44.83577" lon="-0.55453">
        <ele>-54</ele>
        <time>2016-01-12T13:25:32Z</time>
      </trkpt>
      <trkpt lat="44.83572" lon="-0.55444">
        <ele>-53</ele>
        <time>2016-01-12T13:25:38Z</time>
      </trkpt>
      <trkpt lat="44.83566" lon="-0.55436">
        <ele>-53</ele>
        <time>2016-01-12T13:25:44Z</time>
      </trkpt>
      <trkpt lat="44.83561" lon="-0.55428">
        <ele>-54</ele>
        <time>2016-01-12T13:25:52Z</time>
      </trkpt>
      <trkpt lat="44.83553" lon="-0.55421">
        <ele>-55</ele>
        <time>2016-01-12T13:26:01Z</time>
      </trkpt>
      <trkpt lat="44.83545" lon="-0.55424">
        <ele>-58</ele>
        <time>2016-01-12T13:26:15Z</time>
      </trkpt>
      <trkpt lat="44.83537" lon="-0.55419">
        <ele>-56</ele>
        <time>2016-01-12T13:26:21Z</time>
      </trkpt>
      <trkpt lat="44.83531" lon="-0.55411">
        <ele>-54</ele>
        <time>2016-01-12T13:26:28Z</time>
      </trkpt>
      <trkpt lat="44.83525" lon="-0.55404">
        <ele>-53</ele>
        <time>2016-01-12T13:26:35Z</time>
      </trkpt>
      <trkpt lat="44.8352" lon="-0.55396">
        <ele>-53</ele>
        <time>2016-01-12T13:26:41Z</time>
      </trkpt>
      <trkpt lat="44.83513" lon="-0.55388">
        <ele>-53</ele>
        <time>2016-01-12T13:26:48Z</time>
      </trkpt>
      <trkpt lat="44.83507" lon="-0.55378">
        <ele>-52</ele>
        <time>2016-01-12T13:26:56Z</time>
      </trkpt>
      <trkpt lat="44.83504" lon="-0.55368">
        <ele>-51</ele>
        <time>2016-01-12T13:27:03Z</time>
      </trkpt>
      <trkpt lat="44.83499" lon="-0.55358">
        <ele>-52</ele>
        <time>2016-01-12T13:27:11Z</time>
      </trkpt>
      <trkpt lat="44.83493" lon="-0.55348">
        <ele>-52</ele>
        <time>2016-01-12T13:27:19Z</time>
      </trkpt>
      <trkpt lat="44.83487" lon="-0.55339">
        <ele>-50</ele>
        <time>2016-01-12T13:27:29Z</time>
      </trkpt>
      <trkpt lat="44.83481" lon="-0.55332">
        <ele>-50</ele>
        <time>2016-01-12T13:27:37Z</time>
      </trkpt>
      <trkpt lat="44.83478" lon="-0.55321">
        <ele>-51</ele>
        <time>2016-01-12T13:27:45Z</time>
      </trkpt>
      <trkpt lat="44.83478" lon="-0.55308">
        <ele>-51</ele>
        <time>2016-01-12T13:27:52Z</time>
      </trkpt>
      <trkpt lat="44.83477" lon="-0.55296">
        <ele>-52</ele>
        <time>2016-01-12T13:28:00Z</time>
      </trkpt>
      <trkpt lat="44.83475" lon="-0.55284">
        <ele>-54</ele>
        <time>2016-01-12T13:28:09Z</time>
      </trkpt>
      <trkpt lat="44.83472" lon="-0.55274">
        <ele>-54</ele>
        <time>2016-01-12T13:28:16Z</time>
      </trkpt>
      <trkpt lat="44.83467" lon="-0.55265">
        <ele>-54</ele>
        <time>2016-01-12T13:28:22Z</time>
      </trkpt>
      <trkpt lat="44.83461" lon="-0.55256">
        <ele>-55</ele>
        <time>2016-01-12T13:28:28Z</time>
      </trkpt>
      <trkpt lat="44.83456" lon="-0.55245">
        <ele>-55</ele>
        <time>2016-01-12T13:28:36Z</time>
      </trkpt>
      <trkpt lat="44.83452" lon="-0.55235">
        <ele>-55</ele>
        <time>2016-01-12T13:28:41Z</time>
      </trkpt>
      <trkpt lat="44.83451" lon="-0.55224">
        <ele>-51</ele>
        <time>2016-01-12T13:29:03Z</time>
      </trkpt>
      <trkpt lat="44.83451" lon="-0.55211">
        <ele>-52</ele>
        <time>2016-01-12T13:29:12Z</time>
      </trkpt>
      <trkpt lat="44.83447" lon="-0.55201">
        <ele>-57</ele>
        <time>2016-01-12T13:29:19Z</time>
      </trkpt>
      <trkpt lat="44.83443" lon="-0.55191">
        <ele>-61</ele>
        <time>2016-01-12T13:29:28Z</time>
      </trkpt>
      <trkpt lat="44.83433" lon="-0.55181">
        <ele>-61</ele>
        <time>2016-01-12T13:29:33Z</time>
      </trkpt>
      <trkpt lat="44.83427" lon="-0.55173">
        <ele>-60</ele>
        <time>2016-01-12T13:29:37Z</time>
      </trkpt>
      <trkpt lat="44.83421" lon="-0.55164">
        <ele>-59</ele>
        <time>2016-01-12T13:29:42Z</time>
      </trkpt>
      <trkpt lat="44.83416" lon="-0.55155">
        <ele>-58</ele>
        <time>2016-01-12T13:29:47Z</time>
      </trkpt>
      <trkpt lat="44.83411" lon="-0.55145">
        <ele>-57</ele>
        <time>2016-01-12T13:29:53Z</time>
      </trkpt>
      <trkpt lat="44.83408" lon="-0.55135">
        <ele>-56</ele>
        <time>2016-01-12T13:30:04Z</time>
      </trkpt>
      <trkpt lat="44.83405" lon="-0.55123">
        <ele>-54</ele>
        <time>2016-01-12T13:30:13Z</time>
      </trkpt>
      <trkpt lat="44.83401" lon="-0.55112">
        <ele>-52</ele>
        <time>2016-01-12T13:30:19Z</time>
      </trkpt>
      <trkpt lat="44.83397" lon="-0.55102">
        <ele>-51</ele>
        <time>2016-01-12T13:30:25Z</time>
      </trkpt>
      <trkpt lat="44.83392" lon="-0.55091">
        <ele>-51</ele>
        <time>2016-01-12T13:30:32Z</time>
      </trkpt>
      <trkpt lat="44.83388" lon="-0.55081">
        <ele>-49</ele>
        <time>2016-01-12T13:30:39Z</time>
      </trkpt>
      <trkpt lat="44.83382" lon="-0.55072">
        <ele>-47</ele>
        <time>2016-01-12T13:30:46Z</time>
      </trkpt>
      <trkpt lat="44.83382" lon="-0.5507">
        <ele>-47</ele>
        <time>2016-01-12T13:31:01Z</time>
      </trkpt>
      <trkpt lat="44.83379" lon="-0.55054">
        <ele>-49</ele>
        <time>2016-01-12T13:31:06Z</time>
      </trkpt>
      <trkpt lat="44.83376" lon="-0.55045">
        <ele>-51</ele>
        <time>2016-01-12T13:31:14Z</time>
      </trkpt>
      <trkpt lat="44.83368" lon="-0.5503">
        <ele>-51</ele>
        <time>2016-01-12T13:31:19Z</time>
      </trkpt>
      <trkpt lat="44.83361" lon="-0.55018">
        <ele>-49</ele>
        <time>2016-01-12T13:31:24Z</time>
      </trkpt>
      <trkpt lat="44.83355" lon="-0.5501">
        <ele>-46</ele>
        <time>2016-01-12T13:31:30Z</time>
      </trkpt>
      <trkpt lat="44.8336" lon="-0.54999">
        <ele>-40</ele>
        <time>2016-01-12T13:31:52Z</time>
      </trkpt>
      <trkpt lat="44.83361" lon="-0.54988">
        <ele>-40</ele>
        <time>2016-01-12T13:32:01Z</time>
      </trkpt>
      <trkpt lat="44.83357" lon="-0.54978">
        <ele>-40</ele>
        <time>2016-01-12T13:32:08Z</time>
      </trkpt>
      <trkpt lat="44.83351" lon="-0.54971">
        <ele>-35</ele>
        <time>2016-01-12T13:32:15Z</time>
      </trkpt>
      <trkpt lat="44.83346" lon="-0.54961">
        <ele>-36</ele>
        <time>2016-01-12T13:32:21Z</time>
      </trkpt>
      <trkpt lat="44.83341" lon="-0.54951">
        <ele>-38</ele>
        <time>2016-01-12T13:32:28Z</time>
      </trkpt>
      <trkpt lat="44.83336" lon="-0.5494">
        <ele>-41</ele>
        <time>2016-01-12T13:32:35Z</time>
      </trkpt>
      <trkpt lat="44.83331" lon="-0.54931">
        <ele>-37</ele>
        <time>2016-01-12T13:32:43Z</time>
      </trkpt>
      <trkpt lat="44.83326" lon="-0.5492">
        <ele>-38</ele>
        <time>2016-01-12T13:32:51Z</time>
      </trkpt>
      <trkpt lat="44.83323" lon="-0.5491">
        <ele>-40</ele>
        <time>2016-01-12T13:33:02Z</time>
      </trkpt>
      <trkpt lat="44.83319" lon="-0.54899">
        <ele>-45</ele>
        <time>2016-01-12T13:33:11Z</time>
      </trkpt>
      <trkpt lat="44.83314" lon="-0.54889">
        <ele>-49</ele>
        <time>2016-01-12T13:33:16Z</time>
      </trkpt>
      <trkpt lat="44.83308" lon="-0.54881">
        <ele>-49</ele>
        <time>2016-01-12T13:33:21Z</time>
      </trkpt>
      <trkpt lat="44.83303" lon="-0.54871">
        <ele>-51</ele>
        <time>2016-01-12T13:33:28Z</time>
      </trkpt>
      <trkpt lat="44.83298" lon="-0.54862">
        <ele>-50</ele>
        <time>2016-01-12T13:33:33Z</time>
      </trkpt>
      <trkpt lat="44.83294" lon="-0.54852">
        <ele>-52</ele>
        <time>2016-01-12T13:33:40Z</time>
      </trkpt>
      <trkpt lat="44.83288" lon="-0.54842">
        <ele>-50</ele>
        <time>2016-01-12T13:33:51Z</time>
      </trkpt>
      <trkpt lat="44.83283" lon="-0.54833">
        <ele>-50</ele>
        <time>2016-01-12T13:34:00Z</time>
      </trkpt>
      <trkpt lat="44.83278" lon="-0.54824">
        <ele>-51</ele>
        <time>2016-01-12T13:34:06Z</time>
      </trkpt>
      <trkpt lat="44.83274" lon="-0.54816">
        <ele>-53</ele>
        <time>2016-01-12T13:34:10Z</time>
      </trkpt>
      <trkpt lat="44.8327" lon="-0.54805">
        <ele>-53</ele>
        <time>2016-01-12T13:34:15Z</time>
      </trkpt>
      <trkpt lat="44.83265" lon="-0.54795">
        <ele>-54</ele>
        <time>2016-01-12T13:34:22Z</time>
      </trkpt>
      <trkpt lat="44.8326" lon="-0.54786">
        <ele>-54</ele>
        <time>2016-01-12T13:34:30Z</time>
      </trkpt>
      <trkpt lat="44.83255" lon="-0.54776">
        <ele>-54</ele>
        <time>2016-01-12T13:34:37Z</time>
      </trkpt>
      <trkpt lat="44.8325" lon="-0.54767">
        <ele>-55</ele>
        <time>2016-01-12T13:34:44Z</time>
      </trkpt>
      <trkpt lat="44.83244" lon="-0.54758">
        <ele>-56</ele>
        <time>2016-01-12T13:34:50Z</time>
      </trkpt>
      <trkpt lat="44.83241" lon="-0.54747">
        <ele>-57</ele>
        <time>2016-01-12T13:34:58Z</time>
      </trkpt>
      <trkpt lat="44.83236" lon="-0.54738">
        <ele>-58</ele>
        <time>2016-01-12T13:35:03Z</time>
      </trkpt>
      <trkpt lat="44.83231" lon="-0.54729">
        <ele>-59</ele>
        <time>2016-01-12T13:35:08Z</time>
      </trkpt>
      <trkpt lat="44.83225" lon="-0.5472">
        <ele>-58</ele>
        <time>2016-01-12T13:35:16Z</time>
      </trkpt>
      <trkpt lat="44.83223" lon="-0.54707">
        <ele>-56</ele>
        <time>2016-01-12T13:35:24Z</time>
      </trkpt>
      <trkpt lat="44.83219" lon="-0.54696">
        <ele>-57</ele>
        <time>2016-01-12T13:35:30Z</time>
      </trkpt>
      <trkpt lat="44.83215" lon="-0.54686">
        <ele>-59</ele>
        <time>2016-01-12T13:35:36Z</time>
      </trkpt>
      <trkpt lat="44.8321" lon="-0.54676">
        <ele>-59</ele>
        <time>2016-01-12T13:35:42Z</time>
      </trkpt>
      <trkpt lat="44.83203" lon="-0.54671">
        <ele>-55</ele>
        <time>2016-01-12T13:35:49Z</time>
      </trkpt>
      <trkpt lat="44.83194" lon="-0.54673">
        <ele>-47</ele>
        <time>2016-01-12T13:35:53Z</time>
      </trkpt>
      <trkpt lat="44.83186" lon="-0.54668">
        <ele>-43</ele>
        <time>2016-01-12T13:35:58Z</time>
      </trkpt>
      <trkpt lat="44.83179" lon="-0.54661">
        <ele>-38</ele>
        <time>2016-01-12T13:36:06Z</time>
      </trkpt>
      <trkpt lat="44.83175" lon="-0.54651">
        <ele>-27</ele>
        <time>2016-01-12T13:36:17Z</time>
      </trkpt>
      <trkpt lat="44.83172" lon="-0.54639">
        <ele>-27</ele>
        <time>2016-01-12T13:36:24Z</time>
      </trkpt>
      <trkpt lat="44.83168" lon="-0.54628">
        <ele>-29</ele>
        <time>2016-01-12T13:36:30Z</time>
      </trkpt>
      <trkpt lat="44.83163" lon="-0.54617">
        <ele>-30</ele>
        <time>2016-01-12T13:36:35Z</time>
      </trkpt>
      <trkpt lat="44.83164" lon="-0.54606">
        <ele>-35</ele>
        <time>2016-01-12T13:36:48Z</time>
      </trkpt>
      <trkpt lat="44.83159" lon="-0.54596">
        <ele>-39</ele>
        <time>2016-01-12T13:36:56Z</time>
      </trkpt>
      <trkpt lat="44.83152" lon="-0.5459">
        <ele>-44</ele>
        <time>2016-01-12T13:37:03Z</time>
      </trkpt>
      <trkpt lat="44.83148" lon="-0.54579">
        <ele>-48</ele>
        <time>2016-01-12T13:37:08Z</time>
      </trkpt>
      <trkpt lat="44.83144" lon="-0.54568">
        <ele>-50</ele>
        <time>2016-01-12T13:37:14Z</time>
      </trkpt>
      <trkpt lat="44.83139" lon="-0.54558">
        <ele>-50</ele>
        <time>2016-01-12T13:37:20Z</time>
      </trkpt>
      <trkpt lat="44.83131" lon="-0.54552">
        <ele>-43</ele>
        <time>2016-01-12T13:37:27Z</time>
      </trkpt>
      <trkpt lat="44.83124" lon="-0.54544">
        <ele>-39</ele>
        <time>2016-01-12T13:37:32Z</time>
      </trkpt>
      <trkpt lat="44.83118" lon="-0.54536">
        <ele>-36</ele>
        <time>2016-01-12T13:37:39Z</time>
      </trkpt>
      <trkpt lat="44.83114" lon="-0.54529">
        <ele>-30</ele>
        <time>2016-01-12T13:37:47Z</time>
      </trkpt>
      <trkpt lat="44.83107" lon="-0.54519">
        <ele>-30</ele>
        <time>2016-01-12T13:37:52Z</time>
      </trkpt>
      <trkpt lat="44.83103" lon="-0.54509">
        <ele>-32</ele>
        <time>2016-01-12T13:37:58Z</time>
      </trkpt>
      <trkpt lat="44.83101" lon="-0.54499">
        <ele>-36</ele>
        <time>2016-01-12T13:38:02Z</time>
      </trkpt>
      <trkpt lat="44.83098" lon="-0.54487">
        <ele>-39</ele>
        <time>2016-01-12T13:38:09Z</time>
      </trkpt>
      <trkpt lat="44.83097" lon="-0.54481">
        <ele>-41</ele>
        <time>2016-01-12T13:38:21Z</time>
      </trkpt>
      <trkpt lat="44.83092" lon="-0.54469">
        <ele>-40</ele>
        <time>2016-01-12T13:38:25Z</time>
      </trkpt>
      <trkpt lat="44.83087" lon="-0.54459">
        <ele>-41</ele>
        <time>2016-01-12T13:38:32Z</time>
      </trkpt>
      <trkpt lat="44.83083" lon="-0.54448">
        <ele>-43</ele>
        <time>2016-01-12T13:38:41Z</time>
      </trkpt>
      <trkpt lat="44.83078" lon="-0.54438">
        <ele>-46</ele>
        <time>2016-01-12T13:38:47Z</time>
      </trkpt>
      <trkpt lat="44.83075" lon="-0.54428">
        <ele>-48</ele>
        <time>2016-01-12T13:38:55Z</time>
      </trkpt>
      <trkpt lat="44.83069" lon="-0.54419">
        <ele>-50</ele>
        <time>2016-01-12T13:39:02Z</time>
      </trkpt>
      <trkpt lat="44.83063" lon="-0.54412">
        <ele>-51</ele>
        <time>2016-01-12T13:39:08Z</time>
      </trkpt>
      <trkpt lat="44.83058" lon="-0.54403">
        <ele>-50</ele>
        <time>2016-01-12T13:39:14Z</time>
      </trkpt>
      <trkpt lat="44.83053" lon="-0.54393">
        <ele>-51</ele>
        <time>2016-01-12T13:39:21Z</time>
      </trkpt>
      <trkpt lat="44.83048" lon="-0.54383">
        <ele>-50</ele>
        <time>2016-01-12T13:39:27Z</time>
      </trkpt>
      <trkpt lat="44.83044" lon="-0.54372">
        <ele>-50</ele>
        <time>2016-01-12T13:39:33Z</time>
      </trkpt>
      <trkpt lat="44.83043" lon="-0.54361">
        <ele>-51</ele>
        <time>2016-01-12T13:39:40Z</time>
      </trkpt>
      <trkpt lat="44.83037" lon="-0.54353">
        <ele>-52</ele>
        <time>2016-01-12T13:39:47Z</time>
      </trkpt>
      <trkpt lat="44.83031" lon="-0.54345">
        <ele>-52</ele>
        <time>2016-01-12T13:39:54Z</time>
      </trkpt>
      <trkpt lat="44.83025" lon="-0.54338">
        <ele>-50</ele>
        <time>2016-01-12T13:40:01Z</time>
      </trkpt>
      <trkpt lat="44.83019" lon="-0.54329">
        <ele>-49</ele>
        <time>2016-01-12T13:40:08Z</time>
      </trkpt>
      <trkpt lat="44.83015" lon="-0.54318">
        <ele>-49</ele>
        <time>2016-01-12T13:40:15Z</time>
      </trkpt>
      <trkpt lat="44.83009" lon="-0.54308">
        <ele>-51</ele>
        <time>2016-01-12T13:40:22Z</time>
      </trkpt>
      <trkpt lat="44.83006" lon="-0.54299">
        <ele>-49</ele>
        <time>2016-01-12T13:40:30Z</time>
      </trkpt>
      <trkpt lat="44.83001" lon="-0.54288">
        <ele>-49</ele>
        <time>2016-01-12T13:40:37Z</time>
      </trkpt>
      <trkpt lat="44.82996" lon="-0.54278">
        <ele>-50</ele>
        <time>2016-01-12T13:40:43Z</time>
      </trkpt>
      <trkpt lat="44.82991" lon="-0.5427">
        <ele>-50</ele>
        <time>2016-01-12T13:40:49Z</time>
      </trkpt>
      <trkpt lat="44.82986" lon="-0.5426">
        <ele>-51</ele>
        <time>2016-01-12T13:40:55Z</time>
      </trkpt>
      <trkpt lat="44.82981" lon="-0.54249">
        <ele>-51</ele>
        <time>2016-01-12T13:41:02Z</time>
      </trkpt>
      <trkpt lat="44.82977" lon="-0.54241">
        <ele>-52</ele>
        <time>2016-01-12T13:41:10Z</time>
      </trkpt>
      <trkpt lat="44.82972" lon="-0.5423">
        <ele>-55</ele>
        <time>2016-01-12T13:41:19Z</time>
      </trkpt>
      <trkpt lat="44.82968" lon="-0.5422">
        <ele>-58</ele>
        <time>2016-01-12T13:41:27Z</time>
      </trkpt>
      <trkpt lat="44.82963" lon="-0.54209">
        <ele>-58</ele>
        <time>2016-01-12T13:41:33Z</time>
      </trkpt>
      <trkpt lat="44.82959" lon="-0.54199">
        <ele>-58</ele>
        <time>2016-01-12T13:41:39Z</time>
      </trkpt>
      <trkpt lat="44.82953" lon="-0.5419">
        <ele>-59</ele>
        <time>2016-01-12T13:41:45Z</time>
      </trkpt>
      <trkpt lat="44.82948" lon="-0.5418">
        <ele>-60</ele>
        <time>2016-01-12T13:41:51Z</time>
      </trkpt>
      <trkpt lat="44.82944" lon="-0.54171">
        <ele>-61</ele>
        <time>2016-01-12T13:41:56Z</time>
      </trkpt>
      <trkpt lat="44.82937" lon="-0.54163">
        <ele>-60</ele>
        <time>2016-01-12T13:42:03Z</time>
      </trkpt>
      <trkpt lat="44.82931" lon="-0.54156">
        <ele>-51</ele>
        <time>2016-01-12T13:42:12Z</time>
      </trkpt>
      <trkpt lat="44.82926" lon="-0.54148">
        <ele>-50</ele>
        <time>2016-01-12T13:42:18Z</time>
      </trkpt>
      <trkpt lat="44.82921" lon="-0.54139">
        <ele>-51</ele>
        <time>2016-01-12T13:42:24Z</time>
      </trkpt>
      <trkpt lat="44.82916" lon="-0.54129">
        <ele>-52</ele>
        <time>2016-01-12T13:42:30Z</time>
      </trkpt>
      <trkpt lat="44.82911" lon="-0.54121">
        <ele>-52</ele>
        <time>2016-01-12T13:42:38Z</time>
      </trkpt>
      <trkpt lat="44.82905" lon="-0.54112">
        <ele>-52</ele>
        <time>2016-01-12T13:42:44Z</time>
      </trkpt>
      <trkpt lat="44.82899" lon="-0.54103">
        <ele>-51</ele>
        <time>2016-01-12T13:42:51Z</time>
      </trkpt>
      <trkpt lat="44.82893" lon="-0.54093">
        <ele>-51</ele>
        <time>2016-01-12T13:42:59Z</time>
      </trkpt>
      <trkpt lat="44.82887" lon="-0.54085">
        <ele>-50</ele>
        <time>2016-01-12T13:43:06Z</time>
      </trkpt>
      <trkpt lat="44.82882" lon="-0.54077">
        <ele>-50</ele>
        <time>2016-01-12T13:43:12Z</time>
      </trkpt>
      <trkpt lat="44.82876" lon="-0.5407">
        <ele>-49</ele>
        <time>2016-01-12T13:43:19Z</time>
      </trkpt>
      <trkpt lat="44.82873" lon="-0.54058">
        <ele>-48</ele>
        <time>2016-01-12T13:43:27Z</time>
      </trkpt>
      <trkpt lat="44.82868" lon="-0.54048">
        <ele>-49</ele>
        <time>2016-01-12T13:43:34Z</time>
      </trkpt>
      <trkpt lat="44.82863" lon="-0.5404">
        <ele>-51</ele>
        <time>2016-01-12T13:43:40Z</time>
      </trkpt>
      <trkpt lat="44.82858" lon="-0.54031">
        <ele>-52</ele>
        <time>2016-01-12T13:43:47Z</time>
      </trkpt>
      <trkpt lat="44.82852" lon="-0.54021">
        <ele>-53</ele>
        <time>2016-01-12T13:43:53Z</time>
      </trkpt>
      <trkpt lat="44.82847" lon="-0.54012">
        <ele>-55</ele>
        <time>2016-01-12T13:44:00Z</time>
      </trkpt>
      <trkpt lat="44.82841" lon="-0.54004">
        <ele>-56</ele>
        <time>2016-01-12T13:44:04Z</time>
      </trkpt>
      <trkpt lat="44.82835" lon="-0.53996">
        <ele>-55</ele>
        <time>2016-01-12T13:44:12Z</time>
      </trkpt>
      <trkpt lat="44.8283" lon="-0.53988">
        <ele>-55</ele>
        <time>2016-01-12T13:44:18Z</time>
      </trkpt>
      <trkpt lat="44.82826" lon="-0.53978">
        <ele>-56</ele>
        <time>2016-01-12T13:44:26Z</time>
      </trkpt>
      <trkpt lat="44.8282" lon="-0.5397">
        <ele>-55</ele>
        <time>2016-01-12T13:44:34Z</time>
      </trkpt>
      <trkpt lat="44.82814" lon="-0.53963">
        <ele>-51</ele>
        <time>2016-01-12T13:44:42Z</time>
      </trkpt>
      <trkpt lat="44.82809" lon="-0.53955">
        <ele>-51</ele>
        <time>2016-01-12T13:44:46Z</time>
      </trkpt>
      <trkpt lat="44.82803" lon="-0.53946">
        <ele>-51</ele>
        <time>2016-01-12T13:44:52Z</time>
      </trkpt>
      <trkpt lat="44.82799" lon="-0.53937">
        <ele>-52</ele>
        <time>2016-01-12T13:44:58Z</time>
      </trkpt>
      <trkpt lat="44.82794" lon="-0.53928">
        <ele>-52</ele>
        <time>2016-01-12T13:45:03Z</time>
      </trkpt>
      <trkpt lat="44.82789" lon="-0.53917">
        <ele>-53</ele>
        <time>2016-01-12T13:45:11Z</time>
      </trkpt>
      <trkpt lat="44.82785" lon="-0.53907">
        <ele>-53</ele>
        <time>2016-01-12T13:45:18Z</time>
      </trkpt>
      <trkpt lat="44.82781" lon="-0.53899">
        <ele>-53</ele>
        <time>2016-01-12T13:45:24Z</time>
      </trkpt>
      <trkpt lat="44.82774" lon="-0.53891">
        <ele>-54</ele>
        <time>2016-01-12T13:45:30Z</time>
      </trkpt>
      <trkpt lat="44.8277" lon="-0.53881">
        <ele>-54</ele>
        <time>2016-01-12T13:45:37Z</time>
      </trkpt>
      <trkpt lat="44.82765" lon="-0.53871">
        <ele>-54</ele>
        <time>2016-01-12T13:45:45Z</time>
      </trkpt>
      <trkpt lat="44.8276" lon="-0.53863">
        <ele>-54</ele>
        <time>2016-01-12T13:45:51Z</time>
      </trkpt>
      <trkpt lat="44.82755" lon="-0.53855">
        <ele>-54</ele>
        <time>2016-01-12T13:45:56Z</time>
      </trkpt>
      <trkpt lat="44.82748" lon="-0.53848">
        <ele>-52</ele>
        <time>2016-01-12T13:46:03Z</time>
      </trkpt>
      <trkpt lat="44.82743" lon="-0.53841">
        <ele>-53</ele>
        <time>2016-01-12T13:46:10Z</time>
      </trkpt>
      <trkpt lat="44.82737" lon="-0.53833">
        <ele>-53</ele>
        <time>2016-01-12T13:46:17Z</time>
      </trkpt>
      <trkpt lat="44.8273" lon="-0.53825">
        <ele>-52</ele>
        <time>2016-01-12T13:46:22Z</time>
      </trkpt>
      <trkpt lat="44.82724" lon="-0.53817">
        <ele>-48</ele>
        <time>2016-01-12T13:46:30Z</time>
      </trkpt>
      <trkpt lat="44.82719" lon="-0.53807">
        <ele>-50</ele>
        <time>2016-01-12T13:46:43Z</time>
      </trkpt>
      <trkpt lat="44.82714" lon="-0.53798">
        <ele>-51</ele>
        <time>2016-01-12T13:46:49Z</time>
      </trkpt>
      <trkpt lat="44.82709" lon="-0.53789">
        <ele>-51</ele>
        <time>2016-01-12T13:46:56Z</time>
      </trkpt>
      <trkpt lat="44.82702" lon="-0.53781">
        <ele>-51</ele>
        <time>2016-01-12T13:47:03Z</time>
      </trkpt>
      <trkpt lat="44.82696" lon="-0.53776">
        <ele>-49</ele>
        <time>2016-01-12T13:47:09Z</time>
      </trkpt>
      <trkpt lat="44.82691" lon="-0.53767">
        <ele>-49</ele>
        <time>2016-01-12T13:47:14Z</time>
      </trkpt>
      <trkpt lat="44.82687" lon="-0.53757">
        <ele>-49</ele>
        <time>2016-01-12T13:47:20Z</time>
      </trkpt>
      <trkpt lat="44.82682" lon="-0.53747">
        <ele>-49</ele>
        <time>2016-01-12T13:47:26Z</time>
      </trkpt>
      <trkpt lat="44.82675" lon="-0.53742">
        <ele>-48</ele>
        <time>2016-01-12T13:47:30Z</time>
      </trkpt>
      <trkpt lat="44.82667" lon="-0.53737">
        <ele>-46</ele>
        <time>2016-01-12T13:47:35Z</time>
      </trkpt>
      <trkpt lat="44.82661" lon="-0.5373">
        <ele>-45</ele>
        <time>2016-01-12T13:47:40Z</time>
      </trkpt>
      <trkpt lat="44.82655" lon="-0.53722">
        <ele>-44</ele>
        <time>2016-01-12T13:47:45Z</time>
      </trkpt>
      <trkpt lat="44.8265" lon="-0.53713">
        <ele>-45</ele>
        <time>2016-01-12T13:47:52Z</time>
      </trkpt>
      <trkpt lat="44.82643" lon="-0.53705">
        <ele>-46</ele>
        <time>2016-01-12T13:48:00Z</time>
      </trkpt>
      <trkpt lat="44.82637" lon="-0.53698">
        <ele>-46</ele>
        <time>2016-01-12T13:48:06Z</time>
      </trkpt>
      <trkpt lat="44.82631" lon="-0.53691">
        <ele>-45</ele>
        <time>2016-01-12T13:48:13Z</time>
      </trkpt>
      <trkpt lat="44.82623" lon="-0.53683">
        <ele>-44</ele>
        <time>2016-01-12T13:48:21Z</time>
      </trkpt>
      <trkpt lat="44.82625" lon="-0.53671">
        <ele>-51</ele>
        <time>2016-01-12T13:48:34Z</time>
      </trkpt>
      <trkpt lat="44.82628" lon="-0.53659">
        <ele>-59</ele>
        <time>2016-01-12T13:48:51Z</time>
      </trkpt>
      <trkpt lat="44.8263" lon="-0.53656">
        <ele>-60</ele>
        <time>2016-01-12T13:49:23Z</time>
      </trkpt>
      <trkpt lat="44.82634" lon="-0.53643">
        <ele>-57</ele>
        <time>2016-01-12T13:49:28Z</time>
      </trkpt>
      <trkpt lat="44.82636" lon="-0.53631">
        <ele>-55</ele>
        <time>2016-01-12T13:49:38Z</time>
      </trkpt>
      <trkpt lat="44.82642" lon="-0.53622">
        <ele>-54</ele>
        <time>2016-01-12T13:49:46Z</time>
      </trkpt>
      <trkpt lat="44.82649" lon="-0.53616">
        <ele>-59</ele>
        <time>2016-01-12T13:49:54Z</time>
      </trkpt>
      <trkpt lat="44.82654" lon="-0.53607">
        <ele>-60</ele>
        <time>2016-01-12T13:50:02Z</time>
      </trkpt>
      <trkpt lat="44.82657" lon="-0.53596">
        <ele>-57</ele>
        <time>2016-01-12T13:50:12Z</time>
      </trkpt>
      <trkpt lat="44.82663" lon="-0.53593">
        <ele>-53</ele>
        <time>2016-01-12T13:51:07Z</time>
      </trkpt>
      <trkpt lat="44.8267" lon="-0.53585">
        <ele>-42</ele>
        <time>2016-01-12T13:51:37Z</time>
      </trkpt>
      <trkpt lat="44.82671" lon="-0.53573">
        <ele>-38</ele>
        <time>2016-01-12T13:51:45Z</time>
      </trkpt>
      <trkpt lat="44.82679" lon="-0.53571">
        <ele>-43</ele>
        <time>2016-01-12T13:51:50Z</time>
      </trkpt>
      <trkpt lat="44.82687" lon="-0.53567">
        <ele>-44</ele>
        <time>2016-01-12T13:51:56Z</time>
      </trkpt>
      <trkpt lat="44.82692" lon="-0.53556">
        <ele>-45</ele>
        <time>2016-01-12T13:52:02Z</time>
      </trkpt>
      <trkpt lat="44.82694" lon="-0.53545">
        <ele>-48</ele>
        <time>2016-01-12T13:52:07Z</time>
      </trkpt>
      <trkpt lat="44.82692" lon="-0.53535">
        <ele>-49</ele>
        <time>2016-01-12T13:52:11Z</time>
      </trkpt>
      <trkpt lat="44.82695" lon="-0.53524">
        <ele>-53</ele>
        <time>2016-01-12T13:52:19Z</time>
      </trkpt>
      <trkpt lat="44.82703" lon="-0.53518">
        <ele>-53</ele>
        <time>2016-01-12T13:52:25Z</time>
      </trkpt>
      <trkpt lat="44.82711" lon="-0.53515">
        <ele>-58</ele>
        <time>2016-01-12T13:52:30Z</time>
      </trkpt>
      <trkpt lat="44.82719" lon="-0.53512">
        <ele>-62</ele>
        <time>2016-01-12T13:52:36Z</time>
      </trkpt>
      <trkpt lat="44.82726" lon="-0.53507">
        <ele>-61</ele>
        <time>2016-01-12T13:52:42Z</time>
      </trkpt>
      <trkpt lat="44.82733" lon="-0.53501">
        <ele>-58</ele>
        <time>2016-01-12T13:52:49Z</time>
      </trkpt>
      <trkpt lat="44.82734" lon="-0.5349">
        <ele>-56</ele>
        <time>2016-01-12T13:52:55Z</time>
      </trkpt>
      <trkpt lat="44.82743" lon="-0.53484">
        <ele>-53</ele>
        <time>2016-01-12T13:53:00Z</time>
      </trkpt>
      <trkpt lat="44.82746" lon="-0.53472">
        <ele>-55</ele>
        <time>2016-01-12T13:53:05Z</time>
      </trkpt>
      <trkpt lat="44.82749" lon="-0.53461">
        <ele>-54</ele>
        <time>2016-01-12T13:53:09Z</time>
      </trkpt>
      <trkpt lat="44.82753" lon="-0.5345">
        <ele>-54</ele>
        <time>2016-01-12T13:53:14Z</time>
      </trkpt>
      <trkpt lat="44.82757" lon="-0.53439">
        <ele>-55</ele>
        <time>2016-01-12T13:53:21Z</time>
      </trkpt>
      <trkpt lat="44.82761" lon="-0.53428">
        <ele>-55</ele>
        <time>2016-01-12T13:53:28Z</time>
      </trkpt>
      <trkpt lat="44.82764" lon="-0.53417">
        <ele>-55</ele>
        <time>2016-01-12T13:53:33Z</time>
      </trkpt>
      <trkpt lat="44.82767" lon="-0.53406">
        <ele>-54</ele>
        <time>2016-01-12T13:53:40Z</time>
      </trkpt>
      <trkpt lat="44.82772" lon="-0.53397">
        <ele>-51</ele>
        <time>2016-01-12T13:53:50Z</time>
      </trkpt>
      <trkpt lat="44.82779" lon="-0.5339">
        <ele>-51</ele>
        <time>2016-01-12T13:53:56Z</time>
      </trkpt>
      <trkpt lat="44.82779" lon="-0.53381">
        <ele>-51</ele>
        <time>2016-01-12T13:54:00Z</time>
      </trkpt>
      <trkpt lat="44.82775" lon="-0.53364">
        <ele>-51</ele>
        <time>2016-01-12T13:54:05Z</time>
      </trkpt>
      <trkpt lat="44.82777" lon="-0.53352">
        <ele>-52</ele>
        <time>2016-01-12T13:54:12Z</time>
      </trkpt>
      <trkpt lat="44.82783" lon="-0.53346">
        <ele>-56</ele>
        <time>2016-01-12T13:54:17Z</time>
      </trkpt>
      <trkpt lat="44.8279" lon="-0.5334">
        <ele>-57</ele>
        <time>2016-01-12T13:54:22Z</time>
      </trkpt>
      <trkpt lat="44.82794" lon="-0.5333">
        <ele>-57</ele>
        <time>2016-01-12T13:54:28Z</time>
      </trkpt>
      <trkpt lat="44.82797" lon="-0.53319">
        <ele>-57</ele>
        <time>2016-01-12T13:54:35Z</time>
      </trkpt>
      <trkpt lat="44.82801" lon="-0.53308">
        <ele>-56</ele>
        <time>2016-01-12T13:54:42Z</time>
      </trkpt>
      <trkpt lat="44.82805" lon="-0.53297">
        <ele>-49</ele>
        <time>2016-01-12T13:54:53Z</time>
      </trkpt>
      <trkpt lat="44.82814" lon="-0.53293">
        <ele>-50</ele>
        <time>2016-01-12T13:54:57Z</time>
      </trkpt>
      <trkpt lat="44.82818" lon="-0.53282">
        <ele>-51</ele>
        <time>2016-01-12T13:55:03Z</time>
      </trkpt>
      <trkpt lat="44.82824" lon="-0.53274">
        <ele>-53</ele>
        <time>2016-01-12T13:55:09Z</time>
      </trkpt>
      <trkpt lat="44.82828" lon="-0.53265">
        <ele>-53</ele>
        <time>2016-01-12T13:55:15Z</time>
      </trkpt>
      <trkpt lat="44.82829" lon="-0.53254">
        <ele>-56</ele>
        <time>2016-01-12T13:55:21Z</time>
      </trkpt>
      <trkpt lat="44.82835" lon="-0.53246">
        <ele>-59</ele>
        <time>2016-01-12T13:55:26Z</time>
      </trkpt>
      <trkpt lat="44.82838" lon="-0.53235">
        <ele>-60</ele>
        <time>2016-01-12T13:55:31Z</time>
      </trkpt>
      <trkpt lat="44.8284" lon="-0.53223">
        <ele>-64</ele>
        <time>2016-01-12T13:55:37Z</time>
      </trkpt>
      <trkpt lat="44.82843" lon="-0.53211">
        <ele>-66</ele>
        <time>2016-01-12T13:55:42Z</time>
      </trkpt>
      <trkpt lat="44.82845" lon="-0.532">
        <ele>-68</ele>
        <time>2016-01-12T13:55:47Z</time>
      </trkpt>
      <trkpt lat="44.82844" lon="-0.53188">
        <ele>-69</ele>
        <time>2016-01-12T13:55:52Z</time>
      </trkpt>
      <trkpt lat="44.82836" lon="-0.53185">
        <ele>-61</ele>
        <time>2016-01-12T13:55:58Z</time>
      </trkpt>
      <trkpt lat="44.82828" lon="-0.5318">
        <ele>-56</ele>
        <time>2016-01-12T13:56:05Z</time>
      </trkpt>
      <trkpt lat="44.82822" lon="-0.53173">
        <ele>-50</ele>
        <time>2016-01-12T13:56:11Z</time>
      </trkpt>
      <trkpt lat="44.82817" lon="-0.53165">
        <ele>-52</ele>
        <time>2016-01-12T13:56:16Z</time>
      </trkpt>
      <trkpt lat="44.82813" lon="-0.53155">
        <ele>-55</ele>
        <time>2016-01-12T13:56:21Z</time>
      </trkpt>
      <trkpt lat="44.82807" lon="-0.53146">
        <ele>-52</ele>
        <time>2016-01-12T13:56:29Z</time>
      </trkpt>
      <trkpt lat="44.82809" lon="-0.53134">
        <ele>-50</ele>
        <time>2016-01-12T13:56:42Z</time>
      </trkpt>
      <trkpt lat="44.82817" lon="-0.53133">
        <ele>-51</ele>
        <time>2016-01-12T13:56:48Z</time>
      </trkpt>
      <trkpt lat="44.82825" lon="-0.53128">
        <ele>-54</ele>
        <time>2016-01-12T13:56:55Z</time>
      </trkpt>
      <trkpt lat="44.82832" lon="-0.5312">
        <ele>-52</ele>
        <time>2016-01-12T13:57:03Z</time>
      </trkpt>
      <trkpt lat="44.82837" lon="-0.53111">
        <ele>-52</ele>
        <time>2016-01-12T13:57:10Z</time>
      </trkpt>
      <trkpt lat="44.82833" lon="-0.53094">
        <ele>-54</ele>
        <time>2016-01-12T13:57:15Z</time>
      </trkpt>
      <trkpt lat="44.82836" lon="-0.53084">
        <ele>-55</ele>
        <time>2016-01-12T13:57:22Z</time>
      </trkpt>
      <trkpt lat="44.8284" lon="-0.53074">
        <ele>-64</ele>
        <time>2016-01-12T13:57:31Z</time>
      </trkpt>
      <trkpt lat="44.82843" lon="-0.53064">
        <ele>-66</ele>
        <time>2016-01-12T13:57:37Z</time>
      </trkpt>
      <trkpt lat="44.82849" lon="-0.53057">
        <ele>-62</ele>
        <time>2016-01-12T13:57:42Z</time>
      </trkpt>
      <trkpt lat="44.82854" lon="-0.53048">
        <ele>-60</ele>
        <time>2016-01-12T13:57:48Z</time>
      </trkpt>
      <trkpt lat="44.82855" lon="-0.53036">
        <ele>-56</ele>
        <time>2016-01-12T13:57:53Z</time>
      </trkpt>
      <trkpt lat="44.8286" lon="-0.53028">
        <ele>-55</ele>
        <time>2016-01-12T13:57:59Z</time>
      </trkpt>
      <trkpt lat="44.82865" lon="-0.53019">
        <ele>-55</ele>
        <time>2016-01-12T13:58:06Z</time>
      </trkpt>
      <trkpt lat="44.82866" lon="-0.53009">
        <ele>-54</ele>
        <time>2016-01-12T13:58:11Z</time>
      </trkpt>
      <trkpt lat="44.82866" lon="-0.52998">
        <ele>-58</ele>
        <time>2016-01-12T13:58:17Z</time>
      </trkpt>
      <trkpt lat="44.8287" lon="-0.52987">
        <ele>-56</ele>
        <time>2016-01-12T13:58:24Z</time>
      </trkpt>
      <trkpt lat="44.82874" lon="-0.52978">
        <ele>-55</ele>
        <time>2016-01-12T13:58:29Z</time>
      </trkpt>
      <trkpt lat="44.82881" lon="-0.52971">
        <ele>-53</ele>
        <time>2016-01-12T13:58:35Z</time>
      </trkpt>
      <trkpt lat="44.82887" lon="-0.52963">
        <ele>-52</ele>
        <time>2016-01-12T13:58:42Z</time>
      </trkpt>
      <trkpt lat="44.82892" lon="-0.52954">
        <ele>-53</ele>
        <time>2016-01-12T13:58:50Z</time>
      </trkpt>
      <trkpt lat="44.829" lon="-0.52952">
        <ele>-54</ele>
        <time>2016-01-12T13:58:55Z</time>
      </trkpt>
      <trkpt lat="44.82904" lon="-0.52942">
        <ele>-53</ele>
        <time>2016-01-12T13:59:02Z</time>
      </trkpt>
      <trkpt lat="44.82904" lon="-0.5293">
        <ele>-52</ele>
        <time>2016-01-12T13:59:06Z</time>
      </trkpt>
      <trkpt lat="44.82907" lon="-0.52926">
        <ele>-53</ele>
        <time>2016-01-12T13:59:10Z</time>
      </trkpt>
      <trkpt lat="44.82902" lon="-0.5291">
        <ele>-49</ele>
        <time>2016-01-12T13:59:14Z</time>
      </trkpt>
      <trkpt lat="44.82909" lon="-0.52904">
        <ele>-51</ele>
        <time>2016-01-12T13:59:20Z</time>
      </trkpt>
      <trkpt lat="44.82917" lon="-0.529">
        <ele>-53</ele>
        <time>2016-01-12T13:59:26Z</time>
      </trkpt>
      <trkpt lat="44.82924" lon="-0.52893">
        <ele>-53</ele>
        <time>2016-01-12T13:59:32Z</time>
      </trkpt>
      <trkpt lat="44.82931" lon="-0.52886">
        <ele>-57</ele>
        <time>2016-01-12T13:59:40Z</time>
      </trkpt>
      <trkpt lat="44.82937" lon="-0.52878">
        <ele>-54</ele>
        <time>2016-01-12T13:59:46Z</time>
      </trkpt>
      <trkpt lat="44.82946" lon="-0.52876">
        <ele>-53</ele>
        <time>2016-01-12T13:59:52Z</time>
      </trkpt>
      <trkpt lat="44.82954" lon="-0.52872">
        <ele>-55</ele>
        <time>2016-01-12T13:59:58Z</time>
      </trkpt>
      <trkpt lat="44.82959" lon="-0.52862">
        <ele>-55</ele>
        <time>2016-01-12T14:00:05Z</time>
      </trkpt>
      <trkpt lat="44.82966" lon="-0.52858">
        <ele>-55</ele>
        <time>2016-01-12T14:00:11Z</time>
      </trkpt>
      <trkpt lat="44.82974" lon="-0.52852">
        <ele>-54</ele>
        <time>2016-01-12T14:00:18Z</time>
      </trkpt>
      <trkpt lat="44.82977" lon="-0.52843">
        <ele>-54</ele>
        <time>2016-01-12T14:00:24Z</time>
      </trkpt>
      <trkpt lat="44.8298" lon="-0.52832">
        <ele>-54</ele>
        <time>2016-01-12T14:00:30Z</time>
      </trkpt>
      <trkpt lat="44.82986" lon="-0.52823">
        <ele>-53</ele>
        <time>2016-01-12T14:00:37Z</time>
      </trkpt>
      <trkpt lat="44.82994" lon="-0.52819">
        <ele>-54</ele>
        <time>2016-01-12T14:00:44Z</time>
      </trkpt>
      <trkpt lat="44.83002" lon="-0.52817">
        <ele>-57</ele>
        <time>2016-01-12T14:00:50Z</time>
      </trkpt>
      <trkpt lat="44.83006" lon="-0.52807">
        <ele>-56</ele>
        <time>2016-01-12T14:00:56Z</time>
      </trkpt>
      <trkpt lat="44.83005" lon="-0.52796">
        <ele>-55</ele>
        <time>2016-01-12T14:01:01Z</time>
      </trkpt>
      <trkpt lat="44.83009" lon="-0.52786">
        <ele>-55</ele>
        <time>2016-01-12T14:01:07Z</time>
      </trkpt>
      <trkpt lat="44.83015" lon="-0.52778">
        <ele>-54</ele>
        <time>2016-01-12T14:01:13Z</time>
      </trkpt>
      <trkpt lat="44.83021" lon="-0.52771">
        <ele>-56</ele>
        <time>2016-01-12T14:01:19Z</time>
      </trkpt>
      <trkpt lat="44.83022" lon="-0.52759">
        <ele>-56</ele>
        <time>2016-01-12T14:01:24Z</time>
      </trkpt>
      <trkpt lat="44.83021" lon="-0.52747">
        <ele>-52</ele>
        <time>2016-01-12T14:01:29Z</time>
      </trkpt>
      <trkpt lat="44.83018" lon="-0.52735">
        <ele>-49</ele>
        <time>2016-01-12T14:01:43Z</time>
      </trkpt>
      <trkpt lat="44.83026" lon="-0.52729">
        <ele>-49</ele>
        <time>2016-01-12T14:01:50Z</time>
      </trkpt>
      <trkpt lat="44.83034" lon="-0.52726">
        <ele>-49</ele>
        <time>2016-01-12T14:01:56Z</time>
      </trkpt>
      <trkpt lat="44.83043" lon="-0.52724">
        <ele>-51</ele>
        <time>2016-01-12T14:02:04Z</time>
      </trkpt>
      <trkpt lat="44.83051" lon="-0.52722">
        <ele>-51</ele>
        <time>2016-01-12T14:02:09Z</time>
      </trkpt>
      <trkpt lat="44.83055" lon="-0.52713">
        <ele>-49</ele>
        <time>2016-01-12T14:02:14Z</time>
      </trkpt>
      <trkpt lat="44.83053" lon="-0.52695">
        <ele>-43</ele>
        <time>2016-01-12T14:02:19Z</time>
      </trkpt>
      <trkpt lat="44.83059" lon="-0.52685">
        <ele>-44</ele>
        <time>2016-01-12T14:02:26Z</time>
      </trkpt>
      <trkpt lat="44.83067" lon="-0.5268">
        <ele>-47</ele>
        <time>2016-01-12T14:02:33Z</time>
      </trkpt>
      <trkpt lat="44.83074" lon="-0.52677">
        <ele>-47</ele>
        <time>2016-01-12T14:02:40Z</time>
      </trkpt>
      <trkpt lat="44.83082" lon="-0.52676">
        <ele>-45</ele>
        <time>2016-01-12T14:02:45Z</time>
      </trkpt>
      <trkpt lat="44.83089" lon="-0.52672">
        <ele>-43</ele>
        <time>2016-01-12T14:02:51Z</time>
      </trkpt>
      <trkpt lat="44.83097" lon="-0.52668">
        <ele>-43</ele>
        <time>2016-01-12T14:02:57Z</time>
      </trkpt>
      <trkpt lat="44.831" lon="-0.52659">
        <ele>-43</ele>
        <time>2016-01-12T14:03:02Z</time>
      </trkpt>
      <trkpt lat="44.831" lon="-0.52646">
        <ele>-41</ele>
        <time>2016-01-12T14:03:06Z</time>
      </trkpt>
      <trkpt lat="44.83105" lon="-0.52638">
        <ele>-45</ele>
        <time>2016-01-12T14:03:12Z</time>
      </trkpt>
      <trkpt lat="44.8311" lon="-0.52627">
        <ele>-43</ele>
        <time>2016-01-12T14:03:18Z</time>
      </trkpt>
      <trkpt lat="44.83114" lon="-0.52618">
        <ele>-43</ele>
        <time>2016-01-12T14:03:25Z</time>
      </trkpt>
      <trkpt lat="44.83119" lon="-0.5261">
        <ele>-44</ele>
        <time>2016-01-12T14:03:32Z</time>
      </trkpt>
      <trkpt lat="44.83125" lon="-0.526">
        <ele>-45</ele>
        <time>2016-01-12T14:03:39Z</time>
      </trkpt>
      <trkpt lat="44.83124" lon="-0.52589">
        <ele>-45</ele>
        <time>2016-01-12T14:03:45Z</time>
      </trkpt>
      <trkpt lat="44.83126" lon="-0.52577">
        <ele>-44</ele>
        <time>2016-01-12T14:03:52Z</time>
      </trkpt>
      <trkpt lat="44.83132" lon="-0.5257">
        <ele>-49</ele>
        <time>2016-01-12T14:03:58Z</time>
      </trkpt>
      <trkpt lat="44.83137" lon="-0.52562">
        <ele>-49</ele>
        <time>2016-01-12T14:04:05Z</time>
      </trkpt>
      <trkpt lat="44.83144" lon="-0.52553">
        <ele>-52</ele>
        <time>2016-01-12T14:04:12Z</time>
      </trkpt>
      <trkpt lat="44.83149" lon="-0.52544">
        <ele>-55</ele>
        <time>2016-01-12T14:04:19Z</time>
      </trkpt>
      <trkpt lat="44.83153" lon="-0.52534">
        <ele>-55</ele>
        <time>2016-01-12T14:04:27Z</time>
      </trkpt>
      <trkpt lat="44.83161" lon="-0.52529">
        <ele>-55</ele>
        <time>2016-01-12T14:04:33Z</time>
      </trkpt>
      <trkpt lat="44.83164" lon="-0.52518">
        <ele>-55</ele>
        <time>2016-01-12T14:04:41Z</time>
      </trkpt>
      <trkpt lat="44.83171" lon="-0.52512">
        <ele>-56</ele>
        <time>2016-01-12T14:04:49Z</time>
      </trkpt>
      <trkpt lat="44.83175" lon="-0.52502">
        <ele>-49</ele>
        <time>2016-01-12T14:04:59Z</time>
      </trkpt>
      <trkpt lat="44.83176" lon="-0.52493">
        <ele>-38</ele>
        <time>2016-01-12T14:05:09Z</time>
      </trkpt>
      <trkpt lat="44.83181" lon="-0.52484">
        <ele>-31</ele>
        <time>2016-01-12T14:05:15Z</time>
      </trkpt>
      <trkpt lat="44.83187" lon="-0.52474">
        <ele>-18</ele>
        <time>2016-01-12T14:05:29Z</time>
      </trkpt>
      <trkpt lat="44.83193" lon="-0.52469">
        <ele>-17</ele>
        <time>2016-01-12T14:05:35Z</time>
      </trkpt>
      <trkpt lat="44.83205" lon="-0.52463">
        <ele>-22</ele>
        <time>2016-01-12T14:05:40Z</time>
      </trkpt>
      <trkpt lat="44.83213" lon="-0.52458">
        <ele>-22</ele>
        <time>2016-01-12T14:05:44Z</time>
      </trkpt>
      <trkpt lat="44.8322" lon="-0.5245">
        <ele>-26</ele>
        <time>2016-01-12T14:05:50Z</time>
      </trkpt>
      <trkpt lat="44.83226" lon="-0.52442">
        <ele>-28</ele>
        <time>2016-01-12T14:05:57Z</time>
      </trkpt>
      <trkpt lat="44.83233" lon="-0.52433">
        <ele>-32</ele>
        <time>2016-01-12T14:06:05Z</time>
      </trkpt>
      <trkpt lat="44.83241" lon="-0.52428">
        <ele>-30</ele>
        <time>2016-01-12T14:06:13Z</time>
      </trkpt>
      <trkpt lat="44.83247" lon="-0.5242">
        <ele>-31</ele>
        <time>2016-01-12T14:06:19Z</time>
      </trkpt>
      <trkpt lat="44.83256" lon="-0.52423">
        <ele>-34</ele>
        <time>2016-01-12T14:06:29Z</time>
      </trkpt>
      <trkpt lat="44.83263" lon="-0.5242">
        <ele>-36</ele>
        <time>2016-01-12T14:06:34Z</time>
      </trkpt>
      <trkpt lat="44.83258" lon="-0.5243">
        <ele>-33</ele>
        <time>2016-01-12T14:06:58Z</time>
      </trkpt>
      <trkpt lat="44.83253" lon="-0.5244">
        <ele>-37</ele>
        <time>2016-01-12T14:07:09Z</time>
      </trkpt>
      <trkpt lat="44.83261" lon="-0.52436">
        <ele>-39</ele>
        <time>2016-01-12T14:07:24Z</time>
      </trkpt>
      <trkpt lat="44.83269" lon="-0.5243">
        <ele>-36</ele>
        <time>2016-01-12T14:07:31Z</time>
      </trkpt>
      <trkpt lat="44.83277" lon="-0.52428">
        <ele>-34</ele>
        <time>2016-01-12T14:07:38Z</time>
      </trkpt>
      <trkpt lat="44.83285" lon="-0.52427">
        <ele>-30</ele>
        <time>2016-01-12T14:07:49Z</time>
      </trkpt>
      <trkpt lat="44.83294" lon="-0.52429">
        <ele>-26</ele>
        <time>2016-01-12T14:08:01Z</time>
      </trkpt>
      <trkpt lat="44.83302" lon="-0.52432">
        <ele>-22</ele>
        <time>2016-01-12T14:08:09Z</time>
      </trkpt>
      <trkpt lat="44.83309" lon="-0.52434">
        <ele>-18</ele>
        <time>2016-01-12T14:08:15Z</time>
      </trkpt>
      <trkpt lat="44.83321" lon="-0.52433">
        <ele>-10</ele>
        <time>2016-01-12T14:08:20Z</time>
      </trkpt>
      <trkpt lat="44.83321" lon="-0.52431">
        <ele>-10</ele>
        <time>2016-01-12T14:08:40Z</time>
      </trkpt>
      <trkpt lat="44.83332" lon="-0.52427">
        <ele>-8</ele>
        <time>2016-01-12T14:08:44Z</time>
      </trkpt>
      <trkpt lat="44.83341" lon="-0.52427">
        <ele>-6</ele>
        <time>2016-01-12T14:08:53Z</time>
      </trkpt>
      <trkpt lat="44.83347" lon="-0.52428">
        <ele>-6</ele>
        <time>2016-01-12T14:08:57Z</time>
      </trkpt>
      <trkpt lat="44.83355" lon="-0.52427">
        <ele>-6</ele>
        <time>2016-01-12T14:09:02Z</time>
      </trkpt>
      <trkpt lat="44.83363" lon="-0.52423">
        <ele>-4</ele>
        <time>2016-01-12T14:09:11Z</time>
      </trkpt>
      <trkpt lat="44.83371" lon="-0.5242">
        <ele>38.8</ele>
        <time>2016-01-12T14:09:27Z</time>
      </trkpt>
      <trkpt lat="44.83379" lon="-0.52416">
        <ele>-2</ele>
        <time>2016-01-12T14:09:41Z</time>
      </trkpt>
      <trkpt lat="44.83387" lon="-0.52411">
        <ele>41.3</ele>
        <time>2016-01-12T14:09:49Z</time>
      </trkpt>
      <trkpt lat="44.83394" lon="-0.52408">
        <ele>1</ele>
        <time>2016-01-12T14:09:57Z</time>
      </trkpt>
      <trkpt lat="44.83402" lon="-0.52404">
        <ele>43.4</ele>
        <time>2016-01-12T14:10:08Z</time>
      </trkpt>
      <trkpt lat="44.8341" lon="-0.52406">
        <ele>1</ele>
        <time>2016-01-12T14:10:17Z</time>
      </trkpt>
      <trkpt lat="44.83418" lon="-0.52403">
        <ele>44.6</ele>
        <time>2016-01-12T14:10:24Z</time>
      </trkpt>
      <trkpt lat="44.83427" lon="-0.524">
        <ele>1</ele>
        <time>2016-01-12T14:10:32Z</time>
      </trkpt>
      <trkpt lat="44.83434" lon="-0.524">
        <ele>45.7</ele>
        <time>2016-01-12T14:10:38Z</time>
      </trkpt>
      <trkpt lat="44.83443" lon="-0.52398">
        <ele>-1</ele>
        <time>2016-01-12T14:10:47Z</time>
      </trkpt>
      <trkpt lat="44.83451" lon="-0.52398">
        <ele>-1</ele>
        <time>2016-01-12T14:10:53Z</time>
      </trkpt>
      <trkpt lat="44.83459" lon="-0.52395">
        <ele>47.3</ele>
        <time>2016-01-12T14:11:03Z</time>
      </trkpt>
      <trkpt lat="44.83466" lon="-0.52393">
        <ele>-1</ele>
        <time>2016-01-12T14:11:09Z</time>
      </trkpt>
      <trkpt lat="44.83474" lon="-0.52388">
        <ele>48.3</ele>
        <time>2016-01-12T14:11:17Z</time>
      </trkpt>
      <trkpt lat="44.8348" lon="-0.52385">
        <ele>1</ele>
        <time>2016-01-12T14:11:23Z</time>
      </trkpt>
      <trkpt lat="44.83489" lon="-0.52384">
        <ele>3</ele>
        <time>2016-01-12T14:11:34Z</time>
      </trkpt>
      <trkpt lat="44.83496" lon="-0.52382">
        <ele>6</ele>
        <time>2016-01-12T14:11:46Z</time>
      </trkpt>
      <trkpt lat="44.83504" lon="-0.52381">
        <ele>52.4</ele>
        <time>2016-01-12T14:11:53Z</time>
      </trkpt>
      <trkpt lat="44.8351" lon="-0.52377">
        <ele>53.6</ele>
        <time>2016-01-12T14:12:00Z</time>
      </trkpt>
      <trkpt lat="44.83518" lon="-0.52374">
        <ele>1</ele>
        <time>2016-01-12T14:12:05Z</time>
      </trkpt>
      <trkpt lat="44.83526" lon="-0.52368">
        <ele>2</ele>
        <time>2016-01-12T14:12:13Z</time>
      </trkpt>
      <trkpt lat="44.8353" lon="-0.52358">
        <ele>1</ele>
        <time>2016-01-12T14:12:26Z</time>
      </trkpt>
      <trkpt lat="44.83526" lon="-0.52353">
        <ele>1</ele>
        <time>2016-01-12T14:13:09Z</time>
      </trkpt>
      <trkpt lat="44.83538" lon="-0.52351">
        <ele>1</ele>
        <time>2016-01-12T14:13:14Z</time>
      </trkpt>
      <trkpt lat="44.83546" lon="-0.52356">
        <ele>1</ele>
        <time>2016-01-12T14:13:37Z</time>
      </trkpt>
      <trkpt lat="44.83555" lon="-0.52355">
        <ele>7</ele>
        <time>2016-01-12T14:13:48Z</time>
      </trkpt>
      <trkpt lat="44.83564" lon="-0.52356">
        <ele>9</ele>
        <time>2016-01-12T14:13:54Z</time>
      </trkpt>
      <trkpt lat="44.83572" lon="-0.52356">
        <ele>11</ele>
        <time>2016-01-12T14:14:00Z</time>
      </trkpt>
      <trkpt lat="44.8358" lon="-0.52358">
        <ele>11</ele>
        <time>2016-01-12T14:14:07Z</time>
      </trkpt>
      <trkpt lat="44.83588" lon="-0.52362">
        <ele>12</ele>
        <time>2016-01-12T14:14:19Z</time>
      </trkpt>
      <trkpt lat="44.83596" lon="-0.52367">
        <ele>14</ele>
        <time>2016-01-12T14:14:29Z</time>
      </trkpt>
      <trkpt lat="44.83602" lon="-0.52374">
        <ele>17</ele>
        <time>2016-01-12T14:14:39Z</time>
      </trkpt>
      <trkpt lat="44.83609" lon="-0.52381">
        <ele>19</ele>
        <time>2016-01-12T14:14:46Z</time>
      </trkpt>
      <trkpt lat="44.83623" lon="-0.52385">
        <ele>20</ele>
        <time>2016-01-12T14:14:50Z</time>
      </trkpt>
      <trkpt lat="44.83633" lon="-0.52388">
        <ele>19</ele>
        <time>2016-01-12T14:14:54Z</time>
      </trkpt>
      <trkpt lat="44.8364" lon="-0.52394">
        <ele>21</ele>
        <time>2016-01-12T14:15:01Z</time>
      </trkpt>
      <trkpt lat="44.83648" lon="-0.52399">
        <ele>26</ele>
        <time>2016-01-12T14:15:08Z</time>
      </trkpt>
      <trkpt lat="44.83657" lon="-0.52402">
        <ele>29</ele>
        <time>2016-01-12T14:15:18Z</time>
      </trkpt>
      <trkpt lat="44.83664" lon="-0.52408">
        <ele>29</ele>
        <time>2016-01-12T14:15:24Z</time>
      </trkpt>
      <trkpt lat="44.83671" lon="-0.52415">
        <ele>23</ele>
        <time>2016-01-12T14:15:34Z</time>
      </trkpt>
      <trkpt lat="44.83679" lon="-0.52419">
        <ele>19</ele>
        <time>2016-01-12T14:15:41Z</time>
      </trkpt>
      <trkpt lat="44.83687" lon="-0.52421">
        <ele>19</ele>
        <time>2016-01-12T14:15:48Z</time>
      </trkpt>
      <trkpt lat="44.83696" lon="-0.52423">
        <ele>19</ele>
        <time>2016-01-12T14:15:53Z</time>
      </trkpt>
      <trkpt lat="44.83703" lon="-0.52427">
        <ele>17</ele>
        <time>2016-01-12T14:16:01Z</time>
      </trkpt>
      <trkpt lat="44.8371" lon="-0.5243">
        <ele>18</ele>
        <time>2016-01-12T14:16:07Z</time>
      </trkpt>
      <trkpt lat="44.83718" lon="-0.52433">
        <ele>17</ele>
        <time>2016-01-12T14:16:13Z</time>
      </trkpt>
      <trkpt lat="44.83727" lon="-0.52434">
        <ele>16</ele>
        <time>2016-01-12T14:16:21Z</time>
      </trkpt>
      <trkpt lat="44.83736" lon="-0.52435">
        <ele>15</ele>
        <time>2016-01-12T14:16:28Z</time>
      </trkpt>
      <trkpt lat="44.83743" lon="-0.52439">
        <ele>16</ele>
        <time>2016-01-12T14:16:37Z</time>
      </trkpt>
      <trkpt lat="44.83752" lon="-0.5244">
        <ele>17</ele>
        <time>2016-01-12T14:16:46Z</time>
      </trkpt>
      <trkpt lat="44.8376" lon="-0.52443">
        <ele>13</ele>
        <time>2016-01-12T14:16:52Z</time>
      </trkpt>
      <trkpt lat="44.83767" lon="-0.52447">
        <ele>11</ele>
        <time>2016-01-12T14:16:57Z</time>
      </trkpt>
      <trkpt lat="44.83776" lon="-0.52449">
        <ele>12</ele>
        <time>2016-01-12T14:17:03Z</time>
      </trkpt>
      <trkpt lat="44.83784" lon="-0.52453">
        <ele>10</ele>
        <time>2016-01-12T14:17:10Z</time>
      </trkpt>
      <trkpt lat="44.83792" lon="-0.52457">
        <ele>13</ele>
        <time>2016-01-12T14:17:18Z</time>
      </trkpt>
      <trkpt lat="44.838" lon="-0.52456">
        <ele>17</ele>
        <time>2016-01-12T14:17:34Z</time>
      </trkpt>
      <trkpt lat="44.83808" lon="-0.52456">
        <ele>18</ele>
        <time>2016-01-12T14:17:41Z</time>
      </trkpt>
      <trkpt lat="44.83817" lon="-0.52456">
        <ele>18</ele>
        <time>2016-01-12T14:17:46Z</time>
      </trkpt>
      <trkpt lat="44.83825" lon="-0.52456">
        <ele>22</ele>
        <time>2016-01-12T14:17:56Z</time>
      </trkpt>
      <trkpt lat="44.83834" lon="-0.52457">
        <ele>25</ele>
        <time>2016-01-12T14:18:00Z</time>
      </trkpt>
      <trkpt lat="44.83842" lon="-0.52459">
        <ele>25</ele>
        <time>2016-01-12T14:18:06Z</time>
      </trkpt>
      <trkpt lat="44.83849" lon="-0.52461">
        <ele>24</ele>
        <time>2016-01-12T14:18:10Z</time>
      </trkpt>
      <trkpt lat="44.83857" lon="-0.52462">
        <ele>25</ele>
        <time>2016-01-12T14:18:15Z</time>
      </trkpt>
      <trkpt lat="44.83864" lon="-0.52465">
        <ele>25</ele>
        <time>2016-01-12T14:18:20Z</time>
      </trkpt>
      <trkpt lat="44.83873" lon="-0.52466">
        <ele>25</ele>
        <time>2016-01-12T14:18:25Z</time>
      </trkpt>
      <trkpt lat="44.83881" lon="-0.52467">
        <ele>31</ele>
        <time>2016-01-12T14:18:34Z</time>
      </trkpt>
      <trkpt lat="44.8389" lon="-0.52468">
        <ele>30</ele>
        <time>2016-01-12T14:18:40Z</time>
      </trkpt>
      <trkpt lat="44.83898" lon="-0.52469">
        <ele>32</ele>
        <time>2016-01-12T14:18:50Z</time>
      </trkpt>
      <trkpt lat="44.83906" lon="-0.5247">
        <ele>29</ele>
        <time>2016-01-12T14:18:57Z</time>
      </trkpt>
      <trkpt lat="44.83913" lon="-0.52472">
        <ele>26</ele>
        <time>2016-01-12T14:19:02Z</time>
      </trkpt>
      <trkpt lat="44.83921" lon="-0.52473">
        <ele>25</ele>
        <time>2016-01-12T14:19:07Z</time>
      </trkpt>
      <trkpt lat="44.83928" lon="-0.52476">
        <ele>23</ele>
        <time>2016-01-12T14:19:12Z</time>
      </trkpt>
      <trkpt lat="44.83937" lon="-0.52477">
        <ele>20</ele>
        <time>2016-01-12T14:19:16Z</time>
      </trkpt>
      <trkpt lat="44.83946" lon="-0.52475">
        <ele>19</ele>
        <time>2016-01-12T14:19:25Z</time>
      </trkpt>
      <trkpt lat="44.83954" lon="-0.52476">
        <ele>20</ele>
        <time>2016-01-12T14:19:35Z</time>
      </trkpt>
      <trkpt lat="44.83963" lon="-0.52475">
        <ele>15</ele>
        <time>2016-01-12T14:19:44Z</time>
      </trkpt>
      <trkpt lat="44.8397" lon="-0.52471">
        <ele>13</ele>
        <time>2016-01-12T14:19:49Z</time>
      </trkpt>
      <trkpt lat="44.8398" lon="-0.52468">
        <ele>14</ele>
        <time>2016-01-12T14:19:54Z</time>
      </trkpt>
      <trkpt lat="44.83988" lon="-0.52464">
        <ele>15</ele>
        <time>2016-01-12T14:20:00Z</time>
      </trkpt>
      <trkpt lat="44.83993" lon="-0.52455">
        <ele>12</ele>
        <time>2016-01-12T14:20:07Z</time>
      </trkpt>
      <trkpt lat="44.83994" lon="-0.52442">
        <ele>11</ele>
        <time>2016-01-12T14:20:13Z</time>
      </trkpt>
      <trkpt lat="44.83997" lon="-0.52433">
        <ele>8</ele>
        <time>2016-01-12T14:20:20Z</time>
      </trkpt>
      <trkpt lat="44.84001" lon="-0.52422">
        <ele>8</ele>
        <time>2016-01-12T14:20:27Z</time>
      </trkpt>
      <trkpt lat="44.84" lon="-0.5241">
        <ele>8</ele>
        <time>2016-01-12T14:20:35Z</time>
      </trkpt>
      <trkpt lat="44.84002" lon="-0.52399">
        <ele>6</ele>
        <time>2016-01-12T14:20:42Z</time>
      </trkpt>
      <trkpt lat="44.84005" lon="-0.52389">
        <ele>5</ele>
        <time>2016-01-12T14:20:48Z</time>
      </trkpt>
      <trkpt lat="44.84009" lon="-0.52378">
        <ele>3</ele>
        <time>2016-01-12T14:20:56Z</time>
      </trkpt>
      <trkpt lat="44.84009" lon="-0.52366">
        <ele>65.5</ele>
        <time>2016-01-12T14:21:05Z</time>
      </trkpt>
      <trkpt lat="44.84011" lon="-0.52354">
        <ele>-1</ele>
        <time>2016-01-12T14:21:10Z</time>
      </trkpt>
      <trkpt lat="44.8401" lon="-0.52343">
        <ele>-2</ele>
        <time>2016-01-12T14:21:15Z</time>
      </trkpt>
      <trkpt lat="44.84008" lon="-0.52331">
        <ele>65.4</ele>
        <time>2016-01-12T14:21:20Z</time>
      </trkpt>
      <trkpt lat="44.84007" lon="-0.52319">
        <ele>65</ele>
        <time>2016-01-12T14:21:26Z</time>
      </trkpt>
      <trkpt lat="44.84005" lon="-0.52308">
        <ele>2</ele>
        <time>2016-01-12T14:21:31Z</time>
      </trkpt>
      <trkpt lat="44.84004" lon="-0.52296">
        <ele>3</ele>
        <time>2016-01-12T14:21:39Z</time>
      </trkpt>
      <trkpt lat="44.84005" lon="-0.52284">
        <ele>3</ele>
        <time>2016-01-12T14:21:46Z</time>
      </trkpt>
      <trkpt lat="44.84004" lon="-0.52271">
        <ele>3</ele>
        <time>2016-01-12T14:21:53Z</time>
      </trkpt>
      <trkpt lat="44.84005" lon="-0.52259">
        <ele>4</ele>
        <time>2016-01-12T14:22:01Z</time>
      </trkpt>
      <trkpt lat="44.84005" lon="-0.52248">
        <ele>3</ele>
        <time>2016-01-12T14:22:08Z</time>
      </trkpt>
      <trkpt lat="44.84006" lon="-0.52237">
        <ele>3</ele>
        <time>2016-01-12T14:22:15Z</time>
      </trkpt>
      <trkpt lat="44.84007" lon="-0.52225">
        <ele>4</ele>
        <time>2016-01-12T14:22:22Z</time>
      </trkpt>
      <trkpt lat="44.84008" lon="-0.52213">
        <ele>3</ele>
        <time>2016-01-12T14:22:29Z</time>
      </trkpt>
      <trkpt lat="44.84009" lon="-0.52201">
        <ele>7</ele>
        <time>2016-01-12T14:22:37Z</time>
      </trkpt>
      <trkpt lat="44.84017" lon="-0.52195">
        <ele>8</ele>
        <time>2016-01-12T14:22:55Z</time>
      </trkpt>
      <trkpt lat="44.84024" lon="-0.522">
        <ele>6</ele>
        <time>2016-01-12T14:23:03Z</time>
      </trkpt>
      <trkpt lat="44.84028" lon="-0.5221">
        <ele>9</ele>
        <time>2016-01-12T14:23:10Z</time>
      </trkpt>
      <trkpt lat="44.8403" lon="-0.52221">
        <ele>10</ele>
        <time>2016-01-12T14:23:17Z</time>
      </trkpt>
      <trkpt lat="44.84031" lon="-0.52233">
        <ele>9</ele>
        <time>2016-01-12T14:23:25Z</time>
      </trkpt>
      <trkpt lat="44.8403" lon="-0.52246">
        <ele>9</ele>
        <time>2016-01-12T14:27:07Z</time>
      </trkpt>
      <trkpt lat="44.84031" lon="-0.52257">
        <ele>11</ele>
        <time>2016-01-12T14:27:13Z</time>
      </trkpt>
      <trkpt lat="44.84035" lon="-0.52267">
        <ele>10</ele>
        <time>2016-01-12T14:27:19Z</time>
      </trkpt>
      <trkpt lat="44.8404" lon="-0.52277">
        <ele>10</ele>
        <time>2016-01-12T14:27:26Z</time>
      </trkpt>
      <trkpt lat="44.84048" lon="-0.52282">
        <ele>11</ele>
        <time>2016-01-12T14:27:32Z</time>
      </trkpt>
      <trkpt lat="44.84056" lon="-0.52285">
        <ele>10</ele>
        <time>2016-01-12T14:27:39Z</time>
      </trkpt>
      <trkpt lat="44.84064" lon="-0.52283">
        <ele>9</ele>
        <time>2016-01-12T14:27:45Z</time>
      </trkpt>
      <trkpt lat="44.84071" lon="-0.52279">
        <ele>8</ele>
        <time>2016-01-12T14:27:54Z</time>
      </trkpt>
      <trkpt lat="44.84077" lon="-0.52276">
        <ele>8</ele>
        <time>2016-01-12T14:28:21Z</time>
      </trkpt>
      <trkpt lat="44.84088" lon="-0.52277">
        <ele>6</ele>
        <time>2016-01-12T14:28:25Z</time>
      </trkpt>
      <trkpt lat="44.84091" lon="-0.52288">
        <ele>60.4</ele>
        <time>2016-01-12T14:28:44Z</time>
      </trkpt>
      <trkpt lat="44.84093" lon="-0.523">
        <ele>-2</ele>
        <time>2016-01-12T14:28:57Z</time>
      </trkpt>
      <trkpt lat="44.84092" lon="-0.52304">
        <ele>59.8</ele>
        <time>2016-01-12T14:29:14Z</time>
      </trkpt>
      <trkpt lat="44.84105" lon="-0.52306">
        <ele>59.2</ele>
        <time>2016-01-12T14:29:16Z</time>
      </trkpt>
      <trkpt lat="44.84105" lon="-0.52306">
        <ele>59.2</ele>
        <time>2016-01-12T14:29:17Z</time>
      </trkpt>
    </trkseg>
  </trk>
</gpx>